PWSweather.com
Personal Weather Stations
Station Observations
DL5ARK
SonnebergDE

SonnebergDE

Lat: 50.34904861, Lon: 11.18112087

Elevation: 1214

Station Type: Selfmade

http://www.sumbarg.de

High Low Average
Temperature 45.8°F7.7°C 38.8°F3.8°C 42.9°F6.1°C
Dew Point 46.2°F7.9°C 41.3°F5.2°C 44.2°F6.8°C
Winds 11.7 mph 18.8 kmh Calm Calm 3.0 mph SE4.8 kmh SE
Wind Gusts 11.8 mph19.0 kmh -- 3.0 mph4.8 kmh
Humidity 88% 79% 84%
Pressure 30.17 in1021.7 mb 29.90 in1012.5 mb -
Precipitation 0.00 in0.0 mm - -
Hour Temp Dew Point Humidity Winds Wind Gusts Pressure Precip Precip Rate Daily Precip Total
12:01 AM 38.8°F3.8°C 41.6°F5.3°C 86% 1.2 mph NNW1.9 kmh NNW 1.2 mph1.9 kmh 30.17 in1021.7 mb 0.00 in0.0 mm 0.00 in0.0 mm 0.00 in0.0 mm
12:04 AM 39.4°F4.1°C 41.3°F5.2°C 86% 4.9 mph NE7.9 kmh NE 4.9 mph7.9 kmh 30.17 in1021.7 mb 0.00 in0.0 mm 0.00 in0.0 mm 0.00 in0.0 mm
12:07 AM 39.1°F3.9°C 41.6°F5.3°C 86% 1.2 mph NE1.9 kmh NE 1.2 mph1.9 kmh 30.16 in1021.3 mb 0.00 in0.0 mm 0.00 in0.0 mm 0.00 in0.0 mm
12:10 AM 39.2°F4.0°C 41.8°F5.4°C 86% 0.4 mph ESE0.6 kmh ESE 0.4 mph0.6 kmh 30.17 in1021.7 mb 0.00 in0.0 mm 0.00 in0.0 mm 0.00 in0.0 mm
12:13 AM 39.4°F4.1°C 42.0°F5.6°C 86% 6.9 mph NE11.1 kmh NE 6.9 mph11.1 kmh 30.16 in1021.3 mb 0.00 in0.0 mm 0.00 in0.0 mm 0.00 in0.0 mm
12:16 AM 39.8°F4.3°C 41.7°F5.4°C 86% Calm Calm -- 30.17 in1021.7 mb 0.00 in0.0 mm 0.00 in0.0 mm 0.00 in0.0 mm
12:19 AM 39.8°F4.3°C 42.0°F5.6°C 86% 0.8 mph E1.3 kmh E 0.8 mph1.3 kmh 30.16 in1021.3 mb 0.00 in0.0 mm 0.00 in0.0 mm 0.00 in0.0 mm
12:22 AM 39.9°F4.4°C 42.0°F5.6°C 86% 5.6 mph NNW9.0 kmh NNW 5.7 mph9.2 kmh 30.16 in1021.3 mb 0.00 in0.0 mm 0.00 in0.0 mm 0.00 in0.0 mm
12:25 AM 39.8°F4.3°C 42.1°F5.6°C 86% 2.0 mph ESE3.2 kmh ESE 2.0 mph3.2 kmh 30.16 in1021.3 mb 0.00 in0.0 mm 0.00 in0.0 mm 0.00 in0.0 mm
12:28 AM 39.8°F4.3°C 41.7°F5.4°C 85% Calm Calm -- 30.16 in1021.3 mb 0.00 in0.0 mm 0.00 in0.0 mm 0.00 in0.0 mm
12:31 AM 39.9°F4.4°C 42.1°F5.6°C 86% 5.2 mph SSE8.4 kmh SSE 5.3 mph8.5 kmh 30.16 in1021.3 mb 0.00 in0.0 mm 0.00 in0.0 mm 0.00 in0.0 mm
12:34 AM 40.0°F4.4°C 41.8°F5.4°C 85% 3.2 mph NE5.1 kmh NE 3.3 mph5.3 kmh 30.16 in1021.3 mb 0.00 in0.0 mm 0.00 in0.0 mm 0.00 in0.0 mm
12:37 AM 40.0°F4.4°C 41.9°F5.5°C 85% Calm Calm -- 30.17 in1021.7 mb 0.00 in0.0 mm 0.00 in0.0 mm 0.00 in0.0 mm
12:40 AM 40.3°F4.6°C 41.9°F5.5°C 86% 5.7 mph NE9.2 kmh NE 5.7 mph9.2 kmh 30.16 in1021.3 mb 0.00 in0.0 mm 0.00 in0.0 mm 0.00 in0.0 mm
12:43 AM 40.6°F4.8°C 41.6°F5.3°C 85% Calm Calm -- 30.16 in1021.3 mb 0.00 in0.0 mm 0.00 in0.0 mm 0.00 in0.0 mm
12:46 AM 40.3°F4.6°C 42.0°F5.6°C 85% 4.9 mph NNE7.9 kmh NNE 4.9 mph7.9 kmh 30.16 in1021.3 mb 0.00 in0.0 mm 0.00 in0.0 mm 0.00 in0.0 mm
12:49 AM 40.3°F4.6°C 41.9°F5.5°C 85% 0.8 mph NE1.3 kmh NE 0.8 mph1.3 kmh 30.16 in1021.3 mb 0.00 in0.0 mm 0.00 in0.0 mm 0.00 in0.0 mm
12:52 AM 40.6°F4.8°C 41.5°F5.3°C 84% 2.0 mph NNW3.2 kmh NNW 2.0 mph3.2 kmh 30.16 in1021.3 mb 0.00 in0.0 mm 0.00 in0.0 mm 0.00 in0.0 mm
12:55 AM 41.0°F5.0°C 41.6°F5.3°C 85% 5.2 mph NE8.4 kmh NE 5.3 mph8.5 kmh 30.15 in1021.0 mb 0.00 in0.0 mm 0.00 in0.0 mm 0.00 in0.0 mm
12:58 AM 40.6°F4.8°C 42.0°F5.6°C 85% 2.0 mph ESE3.2 kmh ESE 2.0 mph3.2 kmh 30.15 in1021.0 mb 0.00 in0.0 mm 0.00 in0.0 mm 0.00 in0.0 mm
01:01 AM 40.8°F4.9°C 41.7°F5.4°C 84% 3.2 mph NE5.1 kmh NE 3.3 mph5.3 kmh 30.15 in1021.0 mb 0.00 in0.0 mm 0.00 in0.0 mm 0.00 in0.0 mm
01:04 AM 40.6°F4.8°C 41.8°F5.4°C 84% 1.6 mph ESE2.6 kmh ESE 1.6 mph2.6 kmh 30.15 in1021.0 mb 0.00 in0.0 mm 0.00 in0.0 mm 0.00 in0.0 mm
01:07 AM 40.6°F4.8°C 42.0°F5.6°C 84% 0.4 mph E0.6 kmh E 0.4 mph0.6 kmh 30.15 in1021.0 mb 0.00 in0.0 mm 0.00 in0.0 mm 0.00 in0.0 mm
01:10 AM 40.7°F4.8°C 42.0°F5.6°C 84% 6.8 mph NE10.9 kmh NE 6.8 mph10.9 kmh 30.15 in1021.0 mb 0.00 in0.0 mm 0.00 in0.0 mm 0.00 in0.0 mm
01:13 AM 40.7°F4.8°C 42.0°F5.6°C 85% 1.6 mph SE2.6 kmh SE 1.6 mph2.6 kmh 30.15 in1021.0 mb 0.00 in0.0 mm 0.00 in0.0 mm 0.00 in0.0 mm
01:16 AM 40.7°F4.8°C 42.2°F5.7°C 84% 1.2 mph SE1.9 kmh SE 1.2 mph1.9 kmh 30.15 in1021.0 mb 0.00 in0.0 mm 0.00 in0.0 mm 0.00 in0.0 mm
01:19 AM 40.4°F4.7°C 42.4°F5.8°C 84% Calm Calm -- 30.15 in1021.0 mb 0.00 in0.0 mm 0.00 in0.0 mm 0.00 in0.0 mm
01:22 AM 40.7°F4.8°C 42.1°F5.6°C 85% 0.4 mph E0.6 kmh E 0.4 mph0.6 kmh 30.15 in1021.0 mb 0.00 in0.0 mm 0.00 in0.0 mm 0.00 in0.0 mm
01:25 AM 40.7°F4.8°C 42.3°F5.7°C 85% 6.5 mph ENE10.5 kmh ENE 6.5 mph10.5 kmh 30.15 in1021.0 mb 0.00 in0.0 mm 0.00 in0.0 mm 0.00 in0.0 mm
01:28 AM 40.8°F4.9°C 42.0°F5.6°C 85% 7.3 mph NNW11.7 kmh NNW 7.3 mph11.7 kmh 30.15 in1021.0 mb 0.00 in0.0 mm 0.00 in0.0 mm 0.00 in0.0 mm
01:31 AM 40.8°F4.9°C 42.2°F5.7°C 85% 5.3 mph E8.5 kmh E 5.3 mph8.5 kmh 30.15 in1021.0 mb 0.00 in0.0 mm 0.00 in0.0 mm 0.00 in0.0 mm
01:34 AM 40.9°F4.9°C 42.2°F5.7°C 85% 4.0 mph E6.4 kmh E 4.0 mph6.4 kmh 30.15 in1021.0 mb 0.00 in0.0 mm 0.00 in0.0 mm 0.00 in0.0 mm
01:37 AM 40.7°F4.8°C 42.1°F5.6°C 85% 4.4 mph ESE7.1 kmh ESE 4.4 mph7.1 kmh 30.15 in1021.0 mb 0.00 in0.0 mm 0.00 in0.0 mm 0.00 in0.0 mm
01:40 AM 40.7°F4.8°C 42.4°F5.8°C 85% 0.4 mph E0.6 kmh E 0.4 mph0.6 kmh 30.15 in1021.0 mb 0.00 in0.0 mm 0.00 in0.0 mm 0.00 in0.0 mm
01:43 AM 40.8°F4.9°C 42.4°F5.8°C 85% 1.6 mph SE2.6 kmh SE 1.6 mph2.6 kmh 30.15 in1021.0 mb 0.00 in0.0 mm 0.00 in0.0 mm 0.00 in0.0 mm
01:46 AM 40.7°F4.8°C 42.7°F5.9°C 85% 3.2 mph ESE5.1 kmh ESE 3.3 mph5.3 kmh 30.15 in1021.0 mb 0.00 in0.0 mm 0.00 in0.0 mm 0.00 in0.0 mm
01:49 AM 40.7°F4.8°C 42.1°F5.6°C 84% 3.2 mph ESE5.1 kmh ESE 3.3 mph5.3 kmh 30.15 in1021.0 mb 0.00 in0.0 mm 0.00 in0.0 mm 0.00 in0.0 mm
01:52 AM 40.8°F4.9°C 42.5°F5.8°C 85% 0.8 mph ENE1.3 kmh ENE 0.8 mph1.3 kmh 30.15 in1021.0 mb 0.00 in0.0 mm 0.00 in0.0 mm 0.00 in0.0 mm
01:55 AM 40.9°F4.9°C 42.5°F5.8°C 85% 7.7 mph E12.4 kmh E 7.8 mph12.6 kmh 30.15 in1021.0 mb 0.00 in0.0 mm 0.00 in0.0 mm 0.00 in0.0 mm
01:58 AM 40.8°F4.9°C 42.7°F5.9°C 85% 1.6 mph E2.6 kmh E 1.6 mph2.6 kmh 30.15 in1021.0 mb 0.00 in0.0 mm 0.00 in0.0 mm 0.00 in0.0 mm
02:01 AM 40.9°F4.9°C 42.3°F5.7°C 85% 6.4 mph SE10.3 kmh SE 6.4 mph10.3 kmh 30.15 in1021.0 mb 0.00 in0.0 mm 0.00 in0.0 mm 0.00 in0.0 mm
02:04 AM 40.9°F4.9°C 42.7°F5.9°C 86% 5.5 mph E8.9 kmh E 5.5 mph8.9 kmh 30.15 in1021.0 mb 0.00 in0.0 mm 0.00 in0.0 mm 0.00 in0.0 mm
02:07 AM 40.8°F4.9°C 42.6°F5.9°C 86% 2.4 mph E3.9 kmh E 2.4 mph3.9 kmh 30.15 in1021.0 mb 0.00 in0.0 mm 0.00 in0.0 mm 0.00 in0.0 mm
02:10 AM 40.9°F4.9°C 42.7°F5.9°C 86% 1.2 mph E1.9 kmh E 1.2 mph1.9 kmh 30.15 in1021.0 mb 0.00 in0.0 mm 0.00 in0.0 mm 0.00 in0.0 mm
02:13 AM 40.8°F4.9°C 42.8°F6.0°C 86% 2.8 mph ESE4.5 kmh ESE 2.8 mph4.5 kmh 30.15 in1021.0 mb 0.00 in0.0 mm 0.00 in0.0 mm 0.00 in0.0 mm
02:16 AM 40.9°F4.9°C 42.1°F5.6°C 85% 4.8 mph ESE7.7 kmh ESE 4.8 mph7.7 kmh 30.15 in1021.0 mb 0.00 in0.0 mm 0.00 in0.0 mm 0.00 in0.0 mm
02:19 AM 40.9°F4.9°C 42.7°F5.9°C 86% 2.8 mph NNW4.5 kmh NNW 2.9 mph4.7 kmh 30.15 in1021.0 mb 0.00 in0.0 mm 0.00 in0.0 mm 0.00 in0.0 mm
02:22 AM 40.9°F4.9°C 42.6°F5.9°C 86% 5.7 mph SE9.2 kmh SE 5.7 mph9.2 kmh 30.15 in1021.0 mb 0.00 in0.0 mm 0.00 in0.0 mm 0.00 in0.0 mm
02:25 AM 40.8°F4.9°C 42.6°F5.9°C 85% 4.8 mph E7.7 kmh E 4.8 mph7.7 kmh 30.15 in1021.0 mb 0.00 in0.0 mm 0.00 in0.0 mm 0.00 in0.0 mm
02:28 AM 40.8°F4.9°C 42.9°F6.1°C 86% 1.6 mph SE2.6 kmh SE 1.6 mph2.6 kmh 30.15 in1021.0 mb 0.00 in0.0 mm 0.00 in0.0 mm 0.00 in0.0 mm
02:31 AM 40.7°F4.8°C 42.7°F5.9°C 86% 1.2 mph SE1.9 kmh SE 1.2 mph1.9 kmh 30.14 in1020.7 mb 0.00 in0.0 mm 0.00 in0.0 mm 0.00 in0.0 mm
02:34 AM 40.7°F4.8°C 43.0°F6.1°C 86% 4.5 mph E7.2 kmh E 4.5 mph7.2 kmh 30.15 in1021.0 mb 0.00 in0.0 mm 0.00 in0.0 mm 0.00 in0.0 mm
02:37 AM 40.7°F4.8°C 42.9°F6.1°C 86% 0.8 mph SE1.3 kmh SE 0.8 mph1.3 kmh 30.14 in1020.7 mb 0.00 in0.0 mm 0.00 in0.0 mm 0.00 in0.0 mm
02:40 AM 40.7°F4.8°C 42.6°F5.9°C 86% 1.2 mph NNW1.9 kmh NNW 1.2 mph1.9 kmh 30.14 in1020.7 mb 0.00 in0.0 mm 0.00 in0.0 mm 0.00 in0.0 mm
02:43 AM 40.7°F4.8°C 42.7°F5.9°C 87% 3.2 mph NNW5.1 kmh NNW 3.3 mph5.3 kmh 30.15 in1021.0 mb 0.00 in0.0 mm 0.00 in0.0 mm 0.00 in0.0 mm
02:46 AM 40.7°F4.8°C 42.7°F5.9°C 86% 3.2 mph E5.1 kmh E 3.2 mph5.1 kmh 30.14 in1020.7 mb 0.00 in0.0 mm 0.00 in0.0 mm 0.00 in0.0 mm
02:49 AM 40.7°F4.8°C 42.5°F5.8°C 86% Calm Calm -- 30.14 in1020.7 mb 0.00 in0.0 mm 0.00 in0.0 mm 0.00 in0.0 mm
02:52 AM 40.7°F4.8°C 42.9°F6.1°C 87% 3.6 mph SE5.8 kmh SE 3.7 mph6.0 kmh 30.14 in1020.7 mb 0.00 in0.0 mm 0.00 in0.0 mm 0.00 in0.0 mm
02:55 AM 40.7°F4.8°C 43.0°F6.1°C 87% 0.8 mph E1.3 kmh E 0.8 mph1.3 kmh 30.15 in1021.0 mb 0.00 in0.0 mm 0.00 in0.0 mm 0.00 in0.0 mm
02:58 AM 40.7°F4.8°C 43.2°F6.2°C 87% 5.3 mph E8.5 kmh E 5.3 mph8.5 kmh 30.15 in1021.0 mb 0.00 in0.0 mm 0.00 in0.0 mm 0.00 in0.0 mm
03:01 AM 40.7°F4.8°C 42.9°F6.1°C 86% 1.6 mph E2.6 kmh E 1.6 mph2.6 kmh 30.15 in1021.0 mb 0.00 in0.0 mm 0.00 in0.0 mm 0.00 in0.0 mm
03:04 AM 40.7°F4.8°C 43.0°F6.1°C 86% 6.4 mph ESE10.3 kmh ESE 6.4 mph10.3 kmh 30.14 in1020.7 mb 0.00 in0.0 mm 0.00 in0.0 mm 0.00 in0.0 mm
03:07 AM 40.6°F4.8°C 43.0°F6.1°C 86% 0.8 mph NNW1.3 kmh NNW 0.8 mph1.3 kmh 30.14 in1020.7 mb 0.00 in0.0 mm 0.00 in0.0 mm 0.00 in0.0 mm
03:10 AM 40.7°F4.8°C 42.7°F5.9°C 85% 4.8 mph E7.7 kmh E 4.9 mph7.9 kmh 30.14 in1020.7 mb 0.00 in0.0 mm 0.00 in0.0 mm 0.00 in0.0 mm
03:13 AM 40.7°F4.8°C 43.0°F6.1°C 86% 3.6 mph NNW5.8 kmh NNW 3.6 mph5.8 kmh 30.14 in1020.7 mb 0.00 in0.0 mm 0.00 in0.0 mm 0.00 in0.0 mm
03:16 AM 40.8°F4.9°C 42.7°F5.9°C 86% 6.1 mph NE9.8 kmh NE 6.1 mph9.8 kmh 30.14 in1020.7 mb 0.00 in0.0 mm 0.00 in0.0 mm 0.00 in0.0 mm
03:19 AM 40.7°F4.8°C 43.1°F6.2°C 86% 0.8 mph E1.3 kmh E 0.8 mph1.3 kmh 30.14 in1020.7 mb 0.00 in0.0 mm 0.00 in0.0 mm 0.00 in0.0 mm
03:22 AM 40.8°F4.9°C 42.8°F6.0°C 86% 1.2 mph E1.9 kmh E 1.2 mph1.9 kmh 30.13 in1020.3 mb 0.00 in0.0 mm 0.00 in0.0 mm 0.00 in0.0 mm
03:25 AM 40.7°F4.8°C 43.0°F6.1°C 86% Calm Calm -- 30.13 in1020.3 mb 0.00 in0.0 mm 0.00 in0.0 mm 0.00 in0.0 mm
03:28 AM 40.7°F4.8°C 42.9°F6.1°C 86% 3.2 mph E5.1 kmh E 3.3 mph5.3 kmh 30.13 in1020.3 mb 0.00 in0.0 mm 0.00 in0.0 mm 0.00 in0.0 mm
03:31 AM 40.7°F4.8°C 43.0°F6.1°C 86% 2.0 mph ESE3.2 kmh ESE 2.0 mph3.2 kmh 30.13 in1020.3 mb 0.00 in0.0 mm 0.00 in0.0 mm 0.00 in0.0 mm
03:34 AM 40.8°F4.9°C 42.9°F6.1°C 86% Calm Calm -- 30.13 in1020.3 mb 0.00 in0.0 mm 0.00 in0.0 mm 0.00 in0.0 mm
03:37 AM 40.7°F4.8°C 42.9°F6.1°C 86% 1.6 mph SE2.6 kmh SE 1.6 mph2.6 kmh 30.13 in1020.3 mb 0.00 in0.0 mm 0.00 in0.0 mm 0.00 in0.0 mm
03:40 AM 40.8°F4.9°C 43.0°F6.1°C 86% 3.2 mph ESE5.1 kmh ESE 3.3 mph5.3 kmh 30.13 in1020.3 mb 0.00 in0.0 mm 0.00 in0.0 mm 0.00 in0.0 mm
03:43 AM 40.8°F4.9°C 42.7°F5.9°C 86% 1.6 mph ENE2.6 kmh ENE 1.6 mph2.6 kmh 30.13 in1020.3 mb 0.00 in0.0 mm 0.00 in0.0 mm 0.00 in0.0 mm
03:46 AM 40.8°F4.9°C 42.5°F5.8°C 85% 2.0 mph E3.2 kmh E 2.0 mph3.2 kmh 30.13 in1020.3 mb 0.00 in0.0 mm 0.00 in0.0 mm 0.00 in0.0 mm
03:49 AM 40.8°F4.9°C 42.6°F5.9°C 85% 4.0 mph ENE6.4 kmh ENE 4.0 mph6.4 kmh 30.13 in1020.3 mb 0.00 in0.0 mm 0.00 in0.0 mm 0.00 in0.0 mm
03:52 AM 40.8°F4.9°C 42.7°F5.9°C 85% 1.2 mph SE1.9 kmh SE 1.2 mph1.9 kmh 30.13 in1020.3 mb 0.00 in0.0 mm 0.00 in0.0 mm 0.00 in0.0 mm
03:55 AM 40.8°F4.9°C 42.8°F6.0°C 86% 1.2 mph NNW1.9 kmh NNW 1.2 mph1.9 kmh 30.13 in1020.3 mb 0.00 in0.0 mm 0.00 in0.0 mm 0.00 in0.0 mm
03:58 AM 40.9°F4.9°C 42.7°F5.9°C 86% 6.5 mph ESE10.5 kmh ESE 6.5 mph10.5 kmh 30.13 in1020.3 mb 0.00 in0.0 mm 0.00 in0.0 mm 0.00 in0.0 mm
04:01 AM 40.8°F4.9°C 42.8°F6.0°C 85% 0.4 mph SE0.6 kmh SE 0.4 mph0.6 kmh 30.13 in1020.3 mb 0.00 in0.0 mm 0.00 in0.0 mm 0.00 in0.0 mm
04:04 AM 40.7°F4.8°C 42.9°F6.1°C 85% Calm Calm -- 30.13 in1020.3 mb 0.00 in0.0 mm 0.00 in0.0 mm 0.00 in0.0 mm
04:07 AM 40.8°F4.9°C 42.9°F6.1°C 86% 0.4 mph NNW0.6 kmh NNW 0.4 mph0.6 kmh 30.13 in1020.3 mb 0.00 in0.0 mm 0.00 in0.0 mm 0.00 in0.0 mm
04:10 AM 40.7°F4.8°C 42.9°F6.1°C 86% 0.4 mph NE0.6 kmh NE 0.4 mph0.6 kmh 30.13 in1020.3 mb 0.00 in0.0 mm 0.00 in0.0 mm 0.00 in0.0 mm
04:13 AM 40.7°F4.8°C 43.1°F6.2°C 86% 1.2 mph NNW1.9 kmh NNW 1.2 mph1.9 kmh 30.13 in1020.3 mb 0.00 in0.0 mm 0.00 in0.0 mm 0.00 in0.0 mm
04:19 AM 40.8°F4.9°C 42.7°F5.9°C 85% 1.2 mph ESE1.9 kmh ESE 1.2 mph1.9 kmh 30.13 in1020.3 mb 0.00 in0.0 mm 0.00 in0.0 mm 0.00 in0.0 mm
04:22 AM 40.7°F4.8°C 43.1°F6.2°C 86% 0.4 mph NNW0.6 kmh NNW 0.4 mph0.6 kmh 30.13 in1020.3 mb 0.00 in0.0 mm 0.00 in0.0 mm 0.00 in0.0 mm
04:25 AM 40.7°F4.8°C 43.0°F6.1°C 86% Calm Calm -- 30.13 in1020.3 mb 0.00 in0.0 mm 0.00 in0.0 mm 0.00 in0.0 mm
04:28 AM 40.6°F4.8°C 43.0°F6.1°C 86% 0.4 mph E0.6 kmh E 0.4 mph0.6 kmh 30.13 in1020.3 mb 0.00 in0.0 mm 0.00 in0.0 mm 0.00 in0.0 mm
04:31 AM 40.4°F4.7°C 42.9°F6.1°C 85% Calm Calm -- 30.13 in1020.3 mb 0.00 in0.0 mm 0.00 in0.0 mm 0.00 in0.0 mm
04:34 AM 40.3°F4.6°C 42.9°F6.1°C 86% 4.4 mph ESE7.1 kmh ESE 4.4 mph7.1 kmh 30.12 in1020.0 mb 0.00 in0.0 mm 0.00 in0.0 mm 0.00 in0.0 mm
04:37 AM 40.2°F4.6°C 42.8°F6.0°C 86% 0.4 mph E0.6 kmh E 0.4 mph0.6 kmh 30.13 in1020.3 mb 0.00 in0.0 mm 0.00 in0.0 mm 0.00 in0.0 mm
04:40 AM 40.3°F4.6°C 42.5°F5.8°C 86% 4.0 mph E6.4 kmh E 4.0 mph6.4 kmh 30.13 in1020.3 mb 0.00 in0.0 mm 0.00 in0.0 mm 0.00 in0.0 mm
04:43 AM 40.2°F4.6°C 42.8°F6.0°C 86% Calm Calm -- 30.13 in1020.3 mb 0.00 in0.0 mm 0.00 in0.0 mm 0.00 in0.0 mm
04:46 AM 40.2°F4.6°C 43.2°F6.2°C 86% 1.2 mph SE1.9 kmh SE 1.2 mph1.9 kmh 30.12 in1020.0 mb 0.00 in0.0 mm 0.00 in0.0 mm 0.00 in0.0 mm
04:49 AM 40.0°F4.4°C 43.1°F6.2°C 86% 0.8 mph SE1.3 kmh SE 0.8 mph1.3 kmh 30.12 in1020.0 mb 0.00 in0.0 mm 0.00 in0.0 mm 0.00 in0.0 mm
04:52 AM 40.0°F4.4°C 42.9°F6.1°C 86% 1.6 mph ESE2.6 kmh ESE 1.6 mph2.6 kmh 30.12 in1020.0 mb 0.00 in0.0 mm 0.00 in0.0 mm 0.00 in0.0 mm
04:55 AM 40.1°F4.5°C 42.7°F5.9°C 87% 0.4 mph NE0.6 kmh NE 0.4 mph0.6 kmh 30.13 in1020.3 mb 0.00 in0.0 mm 0.00 in0.0 mm 0.00 in0.0 mm
04:58 AM 40.1°F4.5°C 43.0°F6.1°C 87% 4.8 mph E7.7 kmh E 4.8 mph7.7 kmh 30.13 in1020.3 mb 0.00 in0.0 mm 0.00 in0.0 mm 0.00 in0.0 mm
05:01 AM 40.0°F4.4°C 42.7°F5.9°C 86% 0.4 mph ESE0.6 kmh ESE 0.4 mph0.6 kmh 30.13 in1020.3 mb 0.00 in0.0 mm 0.00 in0.0 mm 0.00 in0.0 mm
05:04 AM 39.9°F4.4°C 42.9°F6.1°C 86% 6.1 mph NNW9.8 kmh NNW 6.1 mph9.8 kmh 30.12 in1020.0 mb 0.00 in0.0 mm 0.00 in0.0 mm 0.00 in0.0 mm
05:07 AM 40.1°F4.5°C 42.9°F6.1°C 86% 1.6 mph ESE2.6 kmh ESE 1.6 mph2.6 kmh 30.11 in1019.6 mb 0.00 in0.0 mm 0.00 in0.0 mm 0.00 in0.0 mm
05:10 AM 39.9°F4.4°C 42.7°F5.9°C 86% Calm Calm -- 30.11 in1019.6 mb 0.00 in0.0 mm 0.00 in0.0 mm 0.00 in0.0 mm
05:13 AM 39.8°F4.3°C 42.7°F5.9°C 86% 0.4 mph NE0.6 kmh NE 0.4 mph0.6 kmh 30.11 in1019.6 mb 0.00 in0.0 mm 0.00 in0.0 mm 0.00 in0.0 mm
05:16 AM 39.9°F4.4°C 42.4°F5.8°C 85% 2.0 mph ESE3.2 kmh ESE 2.0 mph3.2 kmh 30.11 in1019.6 mb 0.00 in0.0 mm 0.00 in0.0 mm 0.00 in0.0 mm
05:19 AM 40.0°F4.4°C 42.5°F5.8°C 86% 4.0 mph E6.4 kmh E 4.0 mph6.4 kmh 30.11 in1019.6 mb 0.00 in0.0 mm 0.00 in0.0 mm 0.00 in0.0 mm
05:22 AM 40.0°F4.4°C 42.9°F6.1°C 87% 1.6 mph E2.6 kmh E 1.6 mph2.6 kmh 30.12 in1020.0 mb 0.00 in0.0 mm 0.00 in0.0 mm 0.00 in0.0 mm
05:25 AM 40.0°F4.4°C 42.9°F6.1°C 87% Calm Calm -- 30.12 in1020.0 mb 0.00 in0.0 mm 0.00 in0.0 mm 0.00 in0.0 mm
05:28 AM 40.0°F4.4°C 42.8°F6.0°C 87% Calm Calm -- 30.12 in1020.0 mb 0.00 in0.0 mm 0.00 in0.0 mm 0.00 in0.0 mm
05:31 AM 40.1°F4.5°C 42.9°F6.1°C 87% 0.8 mph E1.3 kmh E 0.8 mph1.3 kmh 30.12 in1020.0 mb 0.00 in0.0 mm 0.00 in0.0 mm 0.00 in0.0 mm
05:34 AM 40.1°F4.5°C 42.7°F5.9°C 86% 4.5 mph E7.2 kmh E 4.5 mph7.2 kmh 30.12 in1020.0 mb 0.00 in0.0 mm 0.00 in0.0 mm 0.00 in0.0 mm
05:37 AM 40.2°F4.6°C 42.5°F5.8°C 88% 6.5 mph SE10.5 kmh SE 6.5 mph10.5 kmh 30.12 in1020.0 mb 0.00 in0.0 mm 0.00 in0.0 mm 0.00 in0.0 mm
05:40 AM 40.3°F4.6°C 43.1°F6.2°C 87% 2.4 mph ESE3.9 kmh ESE 2.4 mph3.9 kmh 30.12 in1020.0 mb 0.00 in0.0 mm 0.00 in0.0 mm 0.00 in0.0 mm
05:43 AM 40.6°F4.8°C 42.8°F6.0°C 88% 1.6 mph SE2.6 kmh SE 1.6 mph2.6 kmh 30.11 in1019.6 mb 0.00 in0.0 mm 0.00 in0.0 mm 0.00 in0.0 mm
05:46 AM 40.4°F4.7°C 42.9°F6.1°C 88% 3.4 mph SE5.5 kmh SE 3.4 mph5.5 kmh 30.12 in1020.0 mb 0.00 in0.0 mm 0.00 in0.0 mm 0.00 in0.0 mm
05:49 AM 40.4°F4.7°C 43.1°F6.2°C 88% 1.2 mph E1.9 kmh E 1.2 mph1.9 kmh 30.12 in1020.0 mb 0.00 in0.0 mm 0.00 in0.0 mm 0.00 in0.0 mm
05:52 AM 40.4°F4.7°C 43.0°F6.1°C 87% 2.0 mph ESE3.2 kmh ESE 2.0 mph3.2 kmh 30.11 in1019.6 mb 0.00 in0.0 mm 0.00 in0.0 mm 0.00 in0.0 mm
05:55 AM 40.4°F4.7°C 43.3°F6.3°C 88% 0.4 mph E0.6 kmh E 0.4 mph0.6 kmh 30.11 in1019.6 mb 0.00 in0.0 mm 0.00 in0.0 mm 0.00 in0.0 mm
05:58 AM 40.6°F4.8°C 42.8°F6.0°C 87% 2.4 mph E3.9 kmh E 2.4 mph3.9 kmh 30.11 in1019.6 mb 0.00 in0.0 mm 0.00 in0.0 mm 0.00 in0.0 mm
06:01 AM 40.6°F4.8°C 43.2°F6.2°C 87% 3.2 mph ENE5.1 kmh ENE 3.3 mph5.3 kmh 30.11 in1019.6 mb 0.00 in0.0 mm 0.00 in0.0 mm 0.00 in0.0 mm
06:04 AM 40.7°F4.8°C 42.7°F5.9°C 86% 11.7 mph E18.8 kmh E 11.8 mph19.0 kmh 30.11 in1019.6 mb 0.00 in0.0 mm 0.00 in0.0 mm 0.00 in0.0 mm
06:07 AM 40.7°F4.8°C 42.9°F6.1°C 86% 0.4 mph ENE0.6 kmh ENE 0.4 mph0.6 kmh 30.11 in1019.6 mb 0.00 in0.0 mm 0.00 in0.0 mm 0.00 in0.0 mm
06:10 AM 40.8°F4.9°C 42.7°F5.9°C 86% 2.0 mph ENE3.2 kmh ENE 2.0 mph3.2 kmh 30.11 in1019.6 mb 0.00 in0.0 mm 0.00 in0.0 mm 0.00 in0.0 mm
06:13 AM 40.8°F4.9°C 43.0°F6.1°C 86% 4.8 mph ESE7.7 kmh ESE 4.8 mph7.7 kmh 30.11 in1019.6 mb 0.00 in0.0 mm 0.00 in0.0 mm 0.00 in0.0 mm
06:16 AM 40.7°F4.8°C 43.0°F6.1°C 86% 0.4 mph E0.6 kmh E 0.4 mph0.6 kmh 30.11 in1019.6 mb 0.00 in0.0 mm 0.00 in0.0 mm 0.00 in0.0 mm
06:19 AM 40.7°F4.8°C 43.0°F6.1°C 86% 1.6 mph ESE2.6 kmh ESE 1.6 mph2.6 kmh 30.11 in1019.6 mb 0.00 in0.0 mm 0.00 in0.0 mm 0.00 in0.0 mm
06:22 AM 40.7°F4.8°C 43.0°F6.1°C 86% 5.7 mph SSE9.2 kmh SSE 5.7 mph9.2 kmh 30.11 in1019.6 mb 0.00 in0.0 mm 0.00 in0.0 mm 0.00 in0.0 mm
06:25 AM 40.8°F4.9°C 43.1°F6.2°C 86% Calm Calm -- 30.11 in1019.6 mb 0.00 in0.0 mm 0.00 in0.0 mm 0.00 in0.0 mm
06:28 AM 40.8°F4.9°C 43.1°F6.2°C 86% 2.0 mph E3.2 kmh E 2.0 mph3.2 kmh 30.10 in1019.3 mb 0.00 in0.0 mm 0.00 in0.0 mm 0.00 in0.0 mm
06:31 AM 40.8°F4.9°C 43.1°F6.2°C 87% Calm Calm -- 30.11 in1019.6 mb 0.00 in0.0 mm 0.00 in0.0 mm 0.00 in0.0 mm
06:34 AM 40.7°F4.8°C 43.1°F6.2°C 87% 4.0 mph E6.4 kmh E 4.0 mph6.4 kmh 30.11 in1019.6 mb 0.00 in0.0 mm 0.00 in0.0 mm 0.00 in0.0 mm
06:37 AM 40.8°F4.9°C 43.2°F6.2°C 87% 2.4 mph E3.9 kmh E 2.4 mph3.9 kmh 30.11 in1019.6 mb 0.00 in0.0 mm 0.00 in0.0 mm 0.00 in0.0 mm
06:40 AM 40.7°F4.8°C 43.2°F6.2°C 86% 3.2 mph NNW5.1 kmh NNW 3.2 mph5.1 kmh 30.11 in1019.6 mb 0.00 in0.0 mm 0.00 in0.0 mm 0.00 in0.0 mm
06:43 AM 40.7°F4.8°C 43.2°F6.2°C 86% Calm Calm -- 30.11 in1019.6 mb 0.00 in0.0 mm 0.00 in0.0 mm 0.00 in0.0 mm
06:46 AM 40.7°F4.8°C 43.3°F6.3°C 87% 4.4 mph E7.1 kmh E 4.5 mph7.2 kmh 30.10 in1019.3 mb 0.00 in0.0 mm 0.00 in0.0 mm 0.00 in0.0 mm
06:49 AM 40.7°F4.8°C 43.0°F6.1°C 87% 2.0 mph NE3.2 kmh NE 2.0 mph3.2 kmh 30.10 in1019.3 mb 0.00 in0.0 mm 0.00 in0.0 mm 0.00 in0.0 mm
06:52 AM 40.7°F4.8°C 43.2°F6.2°C 87% 2.8 mph ENE4.5 kmh ENE 2.8 mph4.5 kmh 30.10 in1019.3 mb 0.00 in0.0 mm 0.00 in0.0 mm 0.00 in0.0 mm
06:55 AM 40.7°F4.8°C 43.2°F6.2°C 87% 3.2 mph SE5.1 kmh SE 3.3 mph5.3 kmh 30.10 in1019.3 mb 0.00 in0.0 mm 0.00 in0.0 mm 0.00 in0.0 mm
06:58 AM 40.7°F4.8°C 43.0°F6.1°C 87% 1.6 mph E2.6 kmh E 1.6 mph2.6 kmh 30.10 in1019.3 mb 0.00 in0.0 mm 0.00 in0.0 mm 0.00 in0.0 mm
07:01 AM 40.6°F4.8°C 43.4°F6.3°C 87% 2.4 mph NE3.9 kmh NE 2.4 mph3.9 kmh 30.10 in1019.3 mb 0.00 in0.0 mm 0.00 in0.0 mm 0.00 in0.0 mm
07:04 AM 40.4°F4.7°C 43.3°F6.3°C 86% 1.6 mph E2.6 kmh E 1.6 mph2.6 kmh 30.10 in1019.3 mb 0.00 in0.0 mm 0.00 in0.0 mm 0.00 in0.0 mm
07:07 AM 40.4°F4.7°C 43.2°F6.2°C 86% Calm Calm -- 30.10 in1019.3 mb 0.00 in0.0 mm 0.00 in0.0 mm 0.00 in0.0 mm
07:10 AM 40.4°F4.7°C 43.4°F6.3°C 87% 1.2 mph NNW1.9 kmh NNW 1.2 mph1.9 kmh 30.10 in1019.3 mb 0.00 in0.0 mm 0.00 in0.0 mm 0.00 in0.0 mm
07:13 AM 40.6°F4.8°C 43.0°F6.1°C 85% 2.0 mph ENE3.2 kmh ENE 2.0 mph3.2 kmh 30.10 in1019.3 mb 0.00 in0.0 mm 0.00 in0.0 mm 0.00 in0.0 mm
07:16 AM 40.7°F4.8°C 43.3°F6.3°C 86% Calm Calm -- 30.10 in1019.3 mb 0.00 in0.0 mm 0.00 in0.0 mm 0.00 in0.0 mm
07:19 AM 40.6°F4.8°C 43.2°F6.2°C 87% 0.4 mph NNW0.6 kmh NNW 0.4 mph0.6 kmh 30.10 in1019.3 mb 0.00 in0.0 mm 0.00 in0.0 mm 0.00 in0.0 mm
07:22 AM 40.6°F4.8°C 43.2°F6.2°C 87% 2.4 mph ESE3.9 kmh ESE 2.5 mph4.0 kmh 30.10 in1019.3 mb 0.00 in0.0 mm 0.00 in0.0 mm 0.00 in0.0 mm
07:25 AM 40.4°F4.7°C 43.4°F6.3°C 87% 0.8 mph E1.3 kmh E 0.8 mph1.3 kmh 30.10 in1019.3 mb 0.00 in0.0 mm 0.00 in0.0 mm 0.00 in0.0 mm
07:28 AM 40.9°F4.9°C 43.3°F6.3°C 87% 3.2 mph NE5.1 kmh NE 3.3 mph5.3 kmh 30.10 in1019.3 mb 0.00 in0.0 mm 0.00 in0.0 mm 0.00 in0.0 mm
07:31 AM 40.9°F4.9°C 43.3°F6.3°C 87% 0.4 mph E0.6 kmh E 0.4 mph0.6 kmh 30.10 in1019.3 mb 0.00 in0.0 mm 0.00 in0.0 mm 0.00 in0.0 mm
07:34 AM 40.9°F4.9°C 43.5°F6.4°C 87% Calm Calm -- 30.10 in1019.3 mb 0.00 in0.0 mm 0.00 in0.0 mm 0.00 in0.0 mm
07:37 AM 41.0°F5.0°C 43.1°F6.2°C 87% 5.7 mph NNW9.2 kmh NNW 5.7 mph9.2 kmh 30.10 in1019.3 mb 0.00 in0.0 mm 0.00 in0.0 mm 0.00 in0.0 mm
07:40 AM 41.0°F5.0°C 43.5°F6.4°C 87% Calm Calm -- 30.10 in1019.3 mb 0.00 in0.0 mm 0.00 in0.0 mm 0.00 in0.0 mm
07:43 AM 41.0°F5.0°C 43.5°F6.4°C 87% 9.6 mph NE15.4 kmh NE 9.6 mph15.4 kmh 30.10 in1019.3 mb 0.00 in0.0 mm 0.00 in0.0 mm 0.00 in0.0 mm
07:46 AM 41.1°F5.1°C 43.2°F6.2°C 86% 0.4 mph NNW0.6 kmh NNW 0.4 mph0.6 kmh 30.10 in1019.3 mb 0.00 in0.0 mm 0.00 in0.0 mm 0.00 in0.0 mm
07:49 AM 41.2°F5.1°C 43.5°F6.4°C 87% 1.6 mph NE2.6 kmh NE 1.6 mph2.6 kmh 30.10 in1019.3 mb 0.00 in0.0 mm 0.00 in0.0 mm 0.00 in0.0 mm
07:52 AM 41.3°F5.2°C 43.6°F6.4°C 87% 3.6 mph ESE5.8 kmh ESE 3.7 mph6.0 kmh 30.10 in1019.3 mb 0.00 in0.0 mm 0.00 in0.0 mm 0.00 in0.0 mm
07:55 AM 41.2°F5.1°C 43.5°F6.4°C 87% 2.0 mph E3.2 kmh E 2.0 mph3.2 kmh 30.10 in1019.3 mb 0.00 in0.0 mm 0.00 in0.0 mm 0.00 in0.0 mm
07:58 AM 41.5°F5.3°C 43.5°F6.4°C 87% 2.8 mph NNW4.5 kmh NNW 2.9 mph4.7 kmh 30.10 in1019.3 mb 0.00 in0.0 mm 0.00 in0.0 mm 0.00 in0.0 mm
08:01 AM 41.5°F5.3°C 43.5°F6.4°C 87% 4.5 mph SE7.2 kmh SE 4.5 mph7.2 kmh 30.10 in1019.3 mb 0.00 in0.0 mm 0.00 in0.0 mm 0.00 in0.0 mm
08:04 AM 41.7°F5.4°C 43.9°F6.6°C 88% 3.6 mph SE5.8 kmh SE 3.7 mph6.0 kmh 30.10 in1019.3 mb 0.00 in0.0 mm 0.00 in0.0 mm 0.00 in0.0 mm
08:07 AM 41.8°F5.4°C 43.5°F6.4°C 87% 0.4 mph SE0.6 kmh SE 0.4 mph0.6 kmh 30.10 in1019.3 mb 0.00 in0.0 mm 0.00 in0.0 mm 0.00 in0.0 mm
08:10 AM 41.9°F5.5°C 43.9°F6.6°C 87% 3.6 mph NNW5.8 kmh NNW 3.7 mph6.0 kmh 30.10 in1019.3 mb 0.00 in0.0 mm 0.00 in0.0 mm 0.00 in0.0 mm
08:13 AM 42.0°F5.6°C 43.9°F6.6°C 87% 2.4 mph E3.9 kmh E 2.4 mph3.9 kmh 30.10 in1019.3 mb 0.00 in0.0 mm 0.00 in0.0 mm 0.00 in0.0 mm
08:16 AM 42.1°F5.6°C 43.6°F6.4°C 86% 1.6 mph E2.6 kmh E 1.6 mph2.6 kmh 30.10 in1019.3 mb 0.00 in0.0 mm 0.00 in0.0 mm 0.00 in0.0 mm
08:19 AM 42.1°F5.6°C 43.9°F6.6°C 87% 2.8 mph ESE4.5 kmh ESE 2.8 mph4.5 kmh 30.10 in1019.3 mb 0.00 in0.0 mm 0.00 in0.0 mm 0.00 in0.0 mm
08:22 AM 42.2°F5.7°C 43.3°F6.3°C 86% 5.5 mph E8.9 kmh E 5.5 mph8.9 kmh 30.10 in1019.3 mb 0.00 in0.0 mm 0.00 in0.0 mm 0.00 in0.0 mm
08:25 AM 42.4°F5.8°C 43.8°F6.6°C 87% 6.1 mph E9.8 kmh E 6.1 mph9.8 kmh 30.10 in1019.3 mb 0.00 in0.0 mm 0.00 in0.0 mm 0.00 in0.0 mm
08:28 AM 42.4°F5.8°C 43.9°F6.6°C 87% 1.6 mph SE2.6 kmh SE 1.6 mph2.6 kmh 30.10 in1019.3 mb 0.00 in0.0 mm 0.00 in0.0 mm 0.00 in0.0 mm
08:34 AM 42.6°F5.9°C 44.0°F6.7°C 87% 2.0 mph E3.2 kmh E 2.0 mph3.2 kmh 30.10 in1019.3 mb 0.00 in0.0 mm 0.00 in0.0 mm 0.00 in0.0 mm
08:37 AM 42.7°F5.9°C 43.9°F6.6°C 87% 3.2 mph ESE5.1 kmh ESE 3.3 mph5.3 kmh 30.10 in1019.3 mb 0.00 in0.0 mm 0.00 in0.0 mm 0.00 in0.0 mm
08:40 AM 42.8°F6.0°C 43.9°F6.6°C 87% 2.0 mph SE3.2 kmh SE 2.0 mph3.2 kmh 30.10 in1019.3 mb 0.00 in0.0 mm 0.00 in0.0 mm 0.00 in0.0 mm
08:43 AM 42.8°F6.0°C 43.9°F6.6°C 86% 1.6 mph ESE2.6 kmh ESE 1.6 mph2.6 kmh 30.10 in1019.3 mb 0.00 in0.0 mm 0.00 in0.0 mm 0.00 in0.0 mm
08:46 AM 42.9°F6.1°C 44.2°F6.8°C 86% 0.8 mph E1.3 kmh E 0.8 mph1.3 kmh 30.10 in1019.3 mb 0.00 in0.0 mm 0.00 in0.0 mm 0.00 in0.0 mm
08:49 AM 42.9°F6.1°C 44.0°F6.7°C 86% 4.0 mph ESE6.4 kmh ESE 4.1 mph6.6 kmh 30.10 in1019.3 mb 0.00 in0.0 mm 0.00 in0.0 mm 0.00 in0.0 mm
08:52 AM 42.9°F6.1°C 44.3°F6.8°C 86% 2.8 mph E4.5 kmh E 2.9 mph4.7 kmh 30.10 in1019.3 mb 0.00 in0.0 mm 0.00 in0.0 mm 0.00 in0.0 mm
08:55 AM 43.0°F6.1°C 44.0°F6.7°C 86% 2.8 mph NNW4.5 kmh NNW 2.8 mph4.5 kmh 30.10 in1019.3 mb 0.00 in0.0 mm 0.00 in0.0 mm 0.00 in0.0 mm
08:58 AM 43.1°F6.2°C 44.4°F6.9°C 86% 0.4 mph ESE0.6 kmh ESE 0.4 mph0.6 kmh 30.10 in1019.3 mb 0.00 in0.0 mm 0.00 in0.0 mm 0.00 in0.0 mm
09:01 AM 43.3°F6.3°C 44.4°F6.9°C 86% 4.0 mph E6.4 kmh E 4.0 mph6.4 kmh 30.09 in1019.0 mb 0.00 in0.0 mm 0.00 in0.0 mm 0.00 in0.0 mm
09:04 AM 43.5°F6.4°C 44.6°F7.0°C 86% 0.8 mph ENE1.3 kmh ENE 0.8 mph1.3 kmh 30.10 in1019.3 mb 0.00 in0.0 mm 0.00 in0.0 mm 0.00 in0.0 mm
09:07 AM 43.5°F6.4°C 44.5°F6.9°C 85% 3.6 mph NE5.8 kmh NE 3.7 mph6.0 kmh 30.10 in1019.3 mb 0.00 in0.0 mm 0.00 in0.0 mm 0.00 in0.0 mm
09:10 AM 43.6°F6.4°C 44.4°F6.9°C 85% 6.8 mph ENE10.9 kmh ENE 6.8 mph10.9 kmh 30.09 in1019.0 mb 0.00 in0.0 mm 0.00 in0.0 mm 0.00 in0.0 mm
09:13 AM 44.0°F6.7°C 44.4°F6.9°C 85% 0.4 mph E0.6 kmh E 0.4 mph0.6 kmh 30.09 in1019.0 mb 0.00 in0.0 mm 0.00 in0.0 mm 0.00 in0.0 mm
09:16 AM 44.2°F6.8°C 44.5°F6.9°C 85% 2.3 mph E3.7 kmh E 2.3 mph3.7 kmh 30.09 in1019.0 mb 0.00 in0.0 mm 0.00 in0.0 mm 0.00 in0.0 mm
09:19 AM 44.0°F6.7°C 44.7°F7.1°C 85% 2.4 mph ENE3.9 kmh ENE 2.4 mph3.9 kmh 30.09 in1019.0 mb 0.00 in0.0 mm 0.00 in0.0 mm 0.00 in0.0 mm
09:22 AM 44.2°F6.8°C 44.6°F7.0°C 85% 1.6 mph E2.6 kmh E 1.6 mph2.6 kmh 30.09 in1019.0 mb 0.00 in0.0 mm 0.00 in0.0 mm 0.00 in0.0 mm
09:25 AM 44.5°F6.9°C 44.8°F7.1°C 85% 3.6 mph SSE5.8 kmh SSE 3.6 mph5.8 kmh 30.08 in1018.6 mb 0.00 in0.0 mm 0.00 in0.0 mm 0.00 in0.0 mm
09:28 AM 44.4°F6.9°C 45.0°F7.2°C 85% 7.5 mph SE12.1 kmh SE 7.6 mph12.2 kmh 30.09 in1019.0 mb 0.00 in0.0 mm 0.00 in0.0 mm 0.00 in0.0 mm
09:31 AM 44.3°F6.8°C 44.8°F7.1°C 84% 3.2 mph ESE5.1 kmh ESE 3.3 mph5.3 kmh 30.09 in1019.0 mb 0.00 in0.0 mm 0.00 in0.0 mm 0.00 in0.0 mm
09:34 AM 44.4°F6.9°C 44.7°F7.1°C 84% 2.8 mph E4.5 kmh E 2.8 mph4.5 kmh 30.10 in1019.3 mb 0.00 in0.0 mm 0.00 in0.0 mm 0.00 in0.0 mm
09:37 AM 44.3°F6.8°C 44.6°F7.0°C 84% 7.2 mph E11.6 kmh E 7.2 mph11.6 kmh 30.09 in1019.0 mb 0.00 in0.0 mm 0.00 in0.0 mm 0.00 in0.0 mm
09:40 AM 44.3°F6.8°C 44.7°F7.1°C 84% 2.4 mph SSE3.9 kmh SSE 2.5 mph4.0 kmh 30.09 in1019.0 mb 0.00 in0.0 mm 0.00 in0.0 mm 0.00 in0.0 mm
09:43 AM 44.5°F6.9°C 44.9°F7.2°C 84% 1.6 mph SE2.6 kmh SE 1.6 mph2.6 kmh 30.09 in1019.0 mb 0.00 in0.0 mm 0.00 in0.0 mm 0.00 in0.0 mm
09:46 AM 44.6°F7.0°C 45.1°F7.3°C 85% 0.4 mph SE0.6 kmh SE 0.4 mph0.6 kmh 30.08 in1018.6 mb 0.00 in0.0 mm 0.00 in0.0 mm 0.00 in0.0 mm
09:49 AM 44.6°F7.0°C 44.9°F7.2°C 84% 1.6 mph E2.6 kmh E 1.6 mph2.6 kmh 30.09 in1019.0 mb 0.00 in0.0 mm 0.00 in0.0 mm 0.00 in0.0 mm
09:52 AM 44.4°F6.9°C 44.7°F7.1°C 84% 4.8 mph E7.7 kmh E 4.8 mph7.7 kmh 30.08 in1018.6 mb 0.00 in0.0 mm 0.00 in0.0 mm 0.00 in0.0 mm
09:55 AM 44.5°F6.9°C 44.7°F7.1°C 83% 1.2 mph ENE1.9 kmh ENE 1.2 mph1.9 kmh 30.09 in1019.0 mb 0.00 in0.0 mm 0.00 in0.0 mm 0.00 in0.0 mm
09:58 AM 44.4°F6.9°C 44.7°F7.1°C 84% 4.0 mph ESE6.4 kmh ESE 4.0 mph6.4 kmh 30.09 in1019.0 mb 0.00 in0.0 mm 0.00 in0.0 mm 0.00 in0.0 mm
10:01 AM 44.7°F7.1°C 44.8°F7.1°C 84% Calm Calm -- 30.09 in1019.0 mb 0.00 in0.0 mm 0.00 in0.0 mm 0.00 in0.0 mm
10:04 AM 44.8°F7.1°C 45.0°F7.2°C 84% 4.0 mph SE6.4 kmh SE 4.0 mph6.4 kmh 30.10 in1019.3 mb 0.00 in0.0 mm 0.00 in0.0 mm 0.00 in0.0 mm
10:07 AM 44.9°F7.2°C 44.9°F7.2°C 84% 2.4 mph E3.9 kmh E 2.5 mph4.0 kmh 30.09 in1019.0 mb 0.00 in0.0 mm 0.00 in0.0 mm 0.00 in0.0 mm
10:10 AM 45.1°F7.3°C 44.5°F6.9°C 83% 4.0 mph NNW6.4 kmh NNW 4.1 mph6.6 kmh 30.09 in1019.0 mb 0.00 in0.0 mm 0.00 in0.0 mm 0.00 in0.0 mm
10:13 AM 45.2°F7.3°C 45.1°F7.3°C 83% Calm Calm -- 30.09 in1019.0 mb 0.00 in0.0 mm 0.00 in0.0 mm 0.00 in0.0 mm
10:16 AM 45.2°F7.3°C 45.2°F7.3°C 83% 0.4 mph SSW0.6 kmh SSW 0.4 mph0.6 kmh 30.09 in1019.0 mb 0.00 in0.0 mm 0.00 in0.0 mm 0.00 in0.0 mm
10:19 AM 45.2°F7.3°C 45.3°F7.4°C 83% 4.4 mph E7.1 kmh E 4.5 mph7.2 kmh 30.09 in1019.0 mb 0.00 in0.0 mm 0.00 in0.0 mm 0.00 in0.0 mm
10:22 AM 45.1°F7.3°C 45.1°F7.3°C 83% 2.4 mph E3.9 kmh E 2.4 mph3.9 kmh 30.08 in1018.6 mb 0.00 in0.0 mm 0.00 in0.0 mm 0.00 in0.0 mm
10:25 AM 44.8°F7.1°C 44.9°F7.2°C 83% 4.9 mph NNW7.9 kmh NNW 4.9 mph7.9 kmh 30.08 in1018.6 mb 0.00 in0.0 mm 0.00 in0.0 mm 0.00 in0.0 mm
10:28 AM 44.9°F7.2°C 45.0°F7.2°C 83% 1.2 mph NE1.9 kmh NE 1.2 mph1.9 kmh 30.08 in1018.6 mb 0.00 in0.0 mm 0.00 in0.0 mm 0.00 in0.0 mm
10:31 AM 45.2°F7.3°C 44.8°F7.1°C 83% 2.4 mph ESE3.9 kmh ESE 2.4 mph3.9 kmh 30.08 in1018.6 mb 0.00 in0.0 mm 0.00 in0.0 mm 0.00 in0.0 mm
10:34 AM 45.3°F7.4°C 45.0°F7.2°C 83% 4.9 mph ESE7.9 kmh ESE 4.9 mph7.9 kmh 30.08 in1018.6 mb 0.00 in0.0 mm 0.00 in0.0 mm 0.00 in0.0 mm
10:37 AM 45.1°F7.3°C 45.4°F7.4°C 83% 1.6 mph E2.6 kmh E 1.6 mph2.6 kmh 30.08 in1018.6 mb 0.00 in0.0 mm 0.00 in0.0 mm 0.00 in0.0 mm
10:40 AM 45.3°F7.4°C 45.1°F7.3°C 83% 2.4 mph NNW3.9 kmh NNW 2.4 mph3.9 kmh 30.08 in1018.6 mb 0.00 in0.0 mm 0.00 in0.0 mm 0.00 in0.0 mm
10:43 AM 45.4°F7.4°C 45.1°F7.3°C 82% 3.6 mph ESE5.8 kmh ESE 3.6 mph5.8 kmh 30.08 in1018.6 mb 0.00 in0.0 mm 0.00 in0.0 mm 0.00 in0.0 mm
10:46 AM 45.5°F7.5°C 45.0°F7.2°C 82% 3.6 mph E5.8 kmh E 3.7 mph6.0 kmh 30.08 in1018.6 mb 0.00 in0.0 mm 0.00 in0.0 mm 0.00 in0.0 mm
10:52 AM 45.5°F7.5°C 44.6°F7.0°C 82% 2.8 mph NNW4.5 kmh NNW 2.8 mph4.5 kmh 30.08 in1018.6 mb 0.00 in0.0 mm 0.00 in0.0 mm 0.00 in0.0 mm
10:55 AM 45.6°F7.6°C 45.1°F7.3°C 82% 0.4 mph ESE0.6 kmh ESE 0.4 mph0.6 kmh 30.08 in1018.6 mb 0.00 in0.0 mm 0.00 in0.0 mm 0.00 in0.0 mm
10:58 AM 45.8°F7.7°C 45.2°F7.3°C 82% Calm Calm -- 30.08 in1018.6 mb 0.00 in0.0 mm 0.00 in0.0 mm 0.00 in0.0 mm
11:01 AM 45.7°F7.6°C 45.3°F7.4°C 82% 2.0 mph NE3.2 kmh NE 2.0 mph3.2 kmh 30.08 in1018.6 mb 0.00 in0.0 mm 0.00 in0.0 mm 0.00 in0.0 mm
11:04 AM 45.8°F7.7°C 45.3°F7.4°C 82% 2.8 mph E4.5 kmh E 2.9 mph4.7 kmh 30.08 in1018.6 mb 0.00 in0.0 mm 0.00 in0.0 mm 0.00 in0.0 mm
11:07 AM 45.8°F7.7°C 45.4°F7.4°C 82% 2.4 mph E3.9 kmh E 2.4 mph3.9 kmh 30.08 in1018.6 mb 0.00 in0.0 mm 0.00 in0.0 mm 0.00 in0.0 mm
11:10 AM 45.7°F7.6°C 45.2°F7.3°C 81% 1.6 mph SE2.6 kmh SE 1.6 mph2.6 kmh 30.08 in1018.6 mb 0.00 in0.0 mm 0.00 in0.0 mm 0.00 in0.0 mm
11:13 AM 45.8°F7.7°C 45.4°F7.4°C 82% 1.2 mph E1.9 kmh E 1.2 mph1.9 kmh 30.07 in1018.3 mb 0.00 in0.0 mm 0.00 in0.0 mm 0.00 in0.0 mm
11:16 AM 45.6°F7.6°C 45.3°F7.4°C 82% 4.1 mph NNW6.6 kmh NNW 4.1 mph6.6 kmh 30.07 in1018.3 mb 0.00 in0.0 mm 0.00 in0.0 mm 0.00 in0.0 mm
11:19 AM 45.6°F7.6°C 45.3°F7.4°C 81% 4.9 mph E7.9 kmh E 4.9 mph7.9 kmh 30.07 in1018.3 mb 0.00 in0.0 mm 0.00 in0.0 mm 0.00 in0.0 mm
11:22 AM 45.5°F7.5°C 45.2°F7.3°C 81% 3.2 mph SE5.1 kmh SE 3.3 mph5.3 kmh 30.07 in1018.3 mb 0.00 in0.0 mm 0.00 in0.0 mm 0.00 in0.0 mm
11:25 AM 45.5°F7.5°C 45.1°F7.3°C 81% 1.6 mph ESE2.6 kmh ESE 1.6 mph2.6 kmh 30.07 in1018.3 mb 0.00 in0.0 mm 0.00 in0.0 mm 0.00 in0.0 mm
11:28 AM 45.6°F7.6°C 45.1°F7.3°C 82% 1.6 mph E2.6 kmh E 1.6 mph2.6 kmh 30.07 in1018.3 mb 0.00 in0.0 mm 0.00 in0.0 mm 0.00 in0.0 mm
11:31 AM 45.6°F7.6°C 45.2°F7.3°C 81% 1.6 mph E2.6 kmh E 1.6 mph2.6 kmh 30.07 in1018.3 mb 0.00 in0.0 mm 0.00 in0.0 mm 0.00 in0.0 mm
11:34 AM 45.3°F7.4°C 45.1°F7.3°C 81% 2.4 mph E3.9 kmh E 2.5 mph4.0 kmh 30.07 in1018.3 mb 0.00 in0.0 mm 0.00 in0.0 mm 0.00 in0.0 mm
11:37 AM 45.1°F7.3°C 45.1°F7.3°C 81% 2.4 mph ESE3.9 kmh ESE 2.5 mph4.0 kmh 30.06 in1017.9 mb 0.00 in0.0 mm 0.00 in0.0 mm 0.00 in0.0 mm
11:40 AM 45.1°F7.3°C 45.4°F7.4°C 81% 4.8 mph ENE7.7 kmh ENE 4.9 mph7.9 kmh 30.06 in1017.9 mb 0.00 in0.0 mm 0.00 in0.0 mm 0.00 in0.0 mm
11:43 AM 45.3°F7.4°C 45.6°F7.6°C 82% 1.6 mph E2.6 kmh E 1.6 mph2.6 kmh 30.06 in1017.9 mb 0.00 in0.0 mm 0.00 in0.0 mm 0.00 in0.0 mm
11:46 AM 45.4°F7.4°C 45.7°F7.6°C 82% 2.4 mph E3.9 kmh E 2.4 mph3.9 kmh 30.06 in1017.9 mb 0.00 in0.0 mm 0.00 in0.0 mm 0.00 in0.0 mm
11:49 AM 45.3°F7.4°C 45.5°F7.5°C 81% 2.4 mph E3.9 kmh E 2.4 mph3.9 kmh 30.06 in1017.9 mb 0.00 in0.0 mm 0.00 in0.0 mm 0.00 in0.0 mm
11:52 AM 45.1°F7.3°C 45.6°F7.6°C 81% 1.2 mph ESE1.9 kmh ESE 1.2 mph1.9 kmh 30.06 in1017.9 mb 0.00 in0.0 mm 0.00 in0.0 mm 0.00 in0.0 mm
11:55 AM 44.8°F7.1°C 45.5°F7.5°C 82% 1.2 mph NE1.9 kmh NE 1.2 mph1.9 kmh 30.06 in1017.9 mb 0.00 in0.0 mm 0.00 in0.0 mm 0.00 in0.0 mm
11:58 AM 44.8°F7.1°C 45.6°F7.6°C 82% 4.4 mph ESE7.1 kmh ESE 4.4 mph7.1 kmh 30.06 in1017.9 mb 0.00 in0.0 mm 0.00 in0.0 mm 0.00 in0.0 mm
12:01 PM 44.9°F7.2°C 45.6°F7.6°C 82% 3.2 mph E5.1 kmh E 3.2 mph5.1 kmh 30.06 in1017.9 mb 0.00 in0.0 mm 0.00 in0.0 mm 0.00 in0.0 mm
12:04 PM 44.8°F7.1°C 45.5°F7.5°C 82% 6.1 mph E9.8 kmh E 6.1 mph9.8 kmh 30.05 in1017.6 mb 0.00 in0.0 mm 0.00 in0.0 mm 0.00 in0.0 mm
12:07 PM 44.9°F7.2°C 45.7°F7.6°C 83% 1.6 mph SE2.6 kmh SE 1.6 mph2.6 kmh 30.05 in1017.6 mb 0.00 in0.0 mm 0.00 in0.0 mm 0.00 in0.0 mm
12:10 PM 45.1°F7.3°C 45.7°F7.6°C 83% 2.4 mph ESE3.9 kmh ESE 2.4 mph3.9 kmh 30.05 in1017.6 mb 0.00 in0.0 mm 0.00 in0.0 mm 0.00 in0.0 mm
12:13 PM 45.2°F7.3°C 45.7°F7.6°C 83% 1.2 mph E1.9 kmh E 1.2 mph1.9 kmh 30.04 in1017.3 mb 0.00 in0.0 mm 0.00 in0.0 mm 0.00 in0.0 mm
12:16 PM 45.1°F7.3°C 45.5°F7.5°C 82% 2.8 mph E4.5 kmh E 2.8 mph4.5 kmh 30.04 in1017.3 mb 0.00 in0.0 mm 0.00 in0.0 mm 0.00 in0.0 mm
12:19 PM 45.2°F7.3°C 45.3°F7.4°C 82% 3.6 mph ESE5.8 kmh ESE 3.6 mph5.8 kmh 30.04 in1017.3 mb 0.00 in0.0 mm 0.00 in0.0 mm 0.00 in0.0 mm
12:22 PM 44.9°F7.2°C 45.6°F7.6°C 82% 4.0 mph ESE6.4 kmh ESE 4.1 mph6.6 kmh 30.04 in1017.3 mb 0.00 in0.0 mm 0.00 in0.0 mm 0.00 in0.0 mm
12:25 PM 44.9°F7.2°C 45.6°F7.6°C 83% 2.8 mph SE4.5 kmh SE 2.8 mph4.5 kmh 30.04 in1017.3 mb 0.00 in0.0 mm 0.00 in0.0 mm 0.00 in0.0 mm
12:28 PM 44.7°F7.1°C 45.2°F7.3°C 82% 6.5 mph NE10.5 kmh NE 6.5 mph10.5 kmh 30.04 in1017.3 mb 0.00 in0.0 mm 0.00 in0.0 mm 0.00 in0.0 mm
12:31 PM 44.7°F7.1°C 45.5°F7.5°C 83% 1.6 mph 2.6 kmh 1.6 mph2.6 kmh 30.04 in1017.3 mb 0.00 in0.0 mm 0.00 in0.0 mm 0.00 in0.0 mm
12:34 PM 44.5°F6.9°C 45.6°F7.6°C 83% 2.4 mph E3.9 kmh E 2.4 mph3.9 kmh 30.04 in1017.3 mb 0.00 in0.0 mm 0.00 in0.0 mm 0.00 in0.0 mm
12:37 PM 44.3°F6.8°C 45.2°F7.3°C 83% 0.8 mph E1.3 kmh E 0.8 mph1.3 kmh 30.04 in1017.3 mb 0.00 in0.0 mm 0.00 in0.0 mm 0.00 in0.0 mm
12:40 PM 44.4°F6.9°C 45.6°F7.6°C 83% 0.4 mph E0.6 kmh E 0.4 mph0.6 kmh 30.03 in1016.9 mb 0.00 in0.0 mm 0.00 in0.0 mm 0.00 in0.0 mm
12:43 PM 44.0°F6.7°C 45.1°F7.3°C 83% 3.6 mph E5.8 kmh E 3.7 mph6.0 kmh 30.04 in1017.3 mb 0.00 in0.0 mm 0.00 in0.0 mm 0.00 in0.0 mm
12:46 PM 44.3°F6.8°C 45.5°F7.5°C 84% 0.4 mph E0.6 kmh E 0.4 mph0.6 kmh 30.04 in1017.3 mb 0.00 in0.0 mm 0.00 in0.0 mm 0.00 in0.0 mm
12:49 PM 44.3°F6.8°C 45.4°F7.4°C 83% 2.8 mph ESE4.5 kmh ESE 2.8 mph4.5 kmh 30.04 in1017.3 mb 0.00 in0.0 mm 0.00 in0.0 mm 0.00 in0.0 mm
12:52 PM 44.2°F6.8°C 45.6°F7.6°C 83% 1.6 mph SE2.6 kmh SE 1.6 mph2.6 kmh 30.04 in1017.3 mb 0.00 in0.0 mm 0.00 in0.0 mm 0.00 in0.0 mm
12:55 PM 44.0°F6.7°C 45.5°F7.5°C 84% 3.2 mph NNW5.1 kmh NNW 3.3 mph5.3 kmh 30.04 in1017.3 mb 0.00 in0.0 mm 0.00 in0.0 mm 0.00 in0.0 mm
12:58 PM 44.0°F6.7°C 45.5°F7.5°C 84% 3.6 mph SE5.8 kmh SE 3.6 mph5.8 kmh 30.04 in1017.3 mb 0.00 in0.0 mm 0.00 in0.0 mm 0.00 in0.0 mm
01:01 PM 44.0°F6.7°C 45.0°F7.2°C 83% 3.6 mph SE5.8 kmh SE 3.7 mph6.0 kmh 30.04 in1017.3 mb 0.00 in0.0 mm 0.00 in0.0 mm 0.00 in0.0 mm
01:04 PM 44.2°F6.8°C 45.7°F7.6°C 84% 6.5 mph ESE10.5 kmh ESE 6.5 mph10.5 kmh 30.04 in1017.3 mb 0.00 in0.0 mm 0.00 in0.0 mm 0.00 in0.0 mm
01:07 PM 44.2°F6.8°C 45.4°F7.4°C 84% 2.8 mph ESE4.5 kmh ESE 2.9 mph4.7 kmh 30.03 in1016.9 mb 0.00 in0.0 mm 0.00 in0.0 mm 0.00 in0.0 mm
01:10 PM 44.0°F6.7°C 45.3°F7.4°C 84% 4.8 mph SE7.7 kmh SE 4.8 mph7.7 kmh 30.03 in1016.9 mb 0.00 in0.0 mm 0.00 in0.0 mm 0.00 in0.0 mm
01:16 PM 44.3°F6.8°C 45.4°F7.4°C 84% 0.4 mph E0.6 kmh E 0.4 mph0.6 kmh 30.03 in1016.9 mb 0.00 in0.0 mm 0.00 in0.0 mm 0.00 in0.0 mm
01:19 PM 44.5°F6.9°C 45.3°F7.4°C 83% 1.2 mph NE1.9 kmh NE 1.2 mph1.9 kmh 30.03 in1016.9 mb 0.00 in0.0 mm 0.00 in0.0 mm 0.00 in0.0 mm
01:22 PM 44.6°F7.0°C 45.9°F7.7°C 84% 2.8 mph E4.5 kmh E 2.9 mph4.7 kmh 30.03 in1016.9 mb 0.00 in0.0 mm 0.00 in0.0 mm 0.00 in0.0 mm
01:25 PM 44.5°F6.9°C 45.7°F7.6°C 84% 2.0 mph ESE3.2 kmh ESE 2.0 mph3.2 kmh 30.03 in1016.9 mb 0.00 in0.0 mm 0.00 in0.0 mm 0.00 in0.0 mm
01:28 PM 44.5°F6.9°C 45.8°F7.7°C 84% 1.2 mph SE1.9 kmh SE 1.2 mph1.9 kmh 30.02 in1016.6 mb 0.00 in0.0 mm 0.00 in0.0 mm 0.00 in0.0 mm
01:31 PM 44.5°F6.9°C 45.9°F7.7°C 84% 2.8 mph SE4.5 kmh SE 2.8 mph4.5 kmh 30.03 in1016.9 mb 0.00 in0.0 mm 0.00 in0.0 mm 0.00 in0.0 mm
01:34 PM 44.5°F6.9°C 45.8°F7.7°C 84% 2.8 mph SE4.5 kmh SE 2.8 mph4.5 kmh 30.02 in1016.6 mb 0.00 in0.0 mm 0.00 in0.0 mm 0.00 in0.0 mm
01:37 PM 44.4°F6.9°C 45.3°F7.4°C 83% 0.8 mph ESE1.3 kmh ESE 0.8 mph1.3 kmh 30.01 in1016.3 mb 0.00 in0.0 mm 0.00 in0.0 mm 0.00 in0.0 mm
01:40 PM 44.5°F6.9°C 45.7°F7.6°C 84% Calm Calm -- 30.01 in1016.3 mb 0.00 in0.0 mm 0.00 in0.0 mm 0.00 in0.0 mm
01:43 PM 44.6°F7.0°C 45.9°F7.7°C 83% 4.0 mph ENE6.4 kmh ENE 4.1 mph6.6 kmh 30.01 in1016.3 mb 0.00 in0.0 mm 0.00 in0.0 mm 0.00 in0.0 mm
01:46 PM 44.6°F7.0°C 45.8°F7.7°C 84% Calm Calm -- 30.01 in1016.3 mb 0.00 in0.0 mm 0.00 in0.0 mm 0.00 in0.0 mm
01:49 PM 44.7°F7.1°C 45.7°F7.6°C 83% 0.4 mph E0.6 kmh E 0.4 mph0.6 kmh 30.01 in1016.3 mb 0.00 in0.0 mm 0.00 in0.0 mm 0.00 in0.0 mm
01:52 PM 44.7°F7.1°C 45.9°F7.7°C 84% 1.2 mph ENE1.9 kmh ENE 1.2 mph1.9 kmh 30.01 in1016.3 mb 0.00 in0.0 mm 0.00 in0.0 mm 0.00 in0.0 mm
01:55 PM 44.7°F7.1°C 45.8°F7.7°C 83% Calm Calm -- 30.01 in1016.3 mb 0.00 in0.0 mm 0.00 in0.0 mm 0.00 in0.0 mm
01:58 PM 44.8°F7.1°C 45.8°F7.7°C 83% 1.6 mph NE2.6 kmh NE 1.6 mph2.6 kmh 30.01 in1016.3 mb 0.00 in0.0 mm 0.00 in0.0 mm 0.00 in0.0 mm
02:01 PM 44.9°F7.2°C 45.8°F7.7°C 83% 1.2 mph ESE1.9 kmh ESE 1.2 mph1.9 kmh 30.01 in1016.3 mb 0.00 in0.0 mm 0.00 in0.0 mm 0.00 in0.0 mm
02:04 PM 45.1°F7.3°C 45.9°F7.7°C 83% 0.8 mph NE1.3 kmh NE 0.8 mph1.3 kmh 30.01 in1016.3 mb 0.00 in0.0 mm 0.00 in0.0 mm 0.00 in0.0 mm
02:07 PM 44.9°F7.2°C 45.8°F7.7°C 83% 3.6 mph SE5.8 kmh SE 3.7 mph6.0 kmh 30.01 in1016.3 mb 0.00 in0.0 mm 0.00 in0.0 mm 0.00 in0.0 mm
02:10 PM 44.9°F7.2°C 46.0°F7.8°C 83% 2.0 mph E3.2 kmh E 2.0 mph3.2 kmh 30.01 in1016.3 mb 0.00 in0.0 mm 0.00 in0.0 mm 0.00 in0.0 mm
02:13 PM 44.9°F7.2°C 46.2°F7.9°C 83% Calm Calm -- 30.01 in1016.3 mb 0.00 in0.0 mm 0.00 in0.0 mm 0.00 in0.0 mm
02:16 PM 44.9°F7.2°C 45.9°F7.7°C 83% 2.0 mph NNW3.2 kmh NNW 2.0 mph3.2 kmh 30.00 in1015.9 mb 0.00 in0.0 mm 0.00 in0.0 mm 0.00 in0.0 mm
02:19 PM 44.9°F7.2°C 45.8°F7.7°C 82% Calm Calm -- 30.00 in1015.9 mb 0.00 in0.0 mm 0.00 in0.0 mm 0.00 in0.0 mm
02:22 PM 45.1°F7.3°C 45.7°F7.6°C 82% Calm Calm -- 30.00 in1015.9 mb 0.00 in0.0 mm 0.00 in0.0 mm 0.00 in0.0 mm
02:25 PM 45.2°F7.3°C 45.2°F7.3°C 81% 3.2 mph ESE5.1 kmh ESE 3.3 mph5.3 kmh 29.99 in1015.6 mb 0.00 in0.0 mm 0.00 in0.0 mm 0.00 in0.0 mm
02:31 PM 45.4°F7.4°C 45.7°F7.6°C 83% 7.5 mph ESE12.1 kmh ESE 7.6 mph12.2 kmh 30.00 in1015.9 mb 0.00 in0.0 mm 0.00 in0.0 mm 0.00 in0.0 mm
02:37 PM 45.4°F7.4°C 45.8°F7.7°C 83% 6.9 mph SSE11.1 kmh SSE 6.9 mph11.1 kmh 29.99 in1015.6 mb 0.00 in0.0 mm 0.00 in0.0 mm 0.00 in0.0 mm
02:40 PM 45.5°F7.5°C 45.9°F7.7°C 83% 2.0 mph E3.2 kmh E 2.0 mph3.2 kmh 30.00 in1015.9 mb 0.00 in0.0 mm 0.00 in0.0 mm 0.00 in0.0 mm
02:43 PM 45.6°F7.6°C 45.9°F7.7°C 82% 3.6 mph SE5.8 kmh SE 3.6 mph5.8 kmh 29.99 in1015.6 mb 0.00 in0.0 mm 0.00 in0.0 mm 0.00 in0.0 mm
02:46 PM 45.4°F7.4°C 46.0°F7.8°C 83% 0.8 mph E1.3 kmh E 0.8 mph1.3 kmh 30.00 in1015.9 mb 0.00 in0.0 mm 0.00 in0.0 mm 0.00 in0.0 mm
02:49 PM 45.4°F7.4°C 46.0°F7.8°C 82% 0.8 mph E1.3 kmh E 0.8 mph1.3 kmh 30.00 in1015.9 mb 0.00 in0.0 mm 0.00 in0.0 mm 0.00 in0.0 mm
02:52 PM 45.4°F7.4°C 45.9°F7.7°C 82% Calm Calm -- 30.00 in1015.9 mb 0.00 in0.0 mm 0.00 in0.0 mm 0.00 in0.0 mm
02:55 PM 45.4°F7.4°C 45.8°F7.7°C 82% 3.2 mph E5.1 kmh E 3.2 mph5.1 kmh 29.99 in1015.6 mb 0.00 in0.0 mm 0.00 in0.0 mm 0.00 in0.0 mm
02:58 PM 45.3°F7.4°C 45.7°F7.6°C 81% 1.2 mph ESE1.9 kmh ESE 1.2 mph1.9 kmh 29.99 in1015.6 mb 0.00 in0.0 mm 0.00 in0.0 mm 0.00 in0.0 mm
03:01 PM 45.2°F7.3°C 45.8°F7.7°C 83% 6.8 mph NNW10.9 kmh NNW 6.8 mph10.9 kmh 29.99 in1015.6 mb 0.00 in0.0 mm 0.00 in0.0 mm 0.00 in0.0 mm
03:04 PM 45.3°F7.4°C 45.5°F7.5°C 82% 9.5 mph ESE15.3 kmh ESE 9.6 mph15.4 kmh 29.98 in1015.2 mb 0.00 in0.0 mm 0.00 in0.0 mm 0.00 in0.0 mm
03:07 PM 45.3°F7.4°C 45.9°F7.7°C 82% 0.4 mph E0.6 kmh E 0.4 mph0.6 kmh 29.98 in1015.2 mb 0.00 in0.0 mm 0.00 in0.0 mm 0.00 in0.0 mm
03:10 PM 45.3°F7.4°C 45.8°F7.7°C 82% 4.0 mph SE6.4 kmh SE 4.1 mph6.6 kmh 29.98 in1015.2 mb 0.00 in0.0 mm 0.00 in0.0 mm 0.00 in0.0 mm
03:13 PM 45.3°F7.4°C 45.6°F7.6°C 81% 1.6 mph E2.6 kmh E 1.6 mph2.6 kmh 29.98 in1015.2 mb 0.00 in0.0 mm 0.00 in0.0 mm 0.00 in0.0 mm
03:16 PM 45.3°F7.4°C 45.7°F7.6°C 82% Calm Calm -- 29.98 in1015.2 mb 0.00 in0.0 mm 0.00 in0.0 mm 0.00 in0.0 mm
03:19 PM 45.1°F7.3°C 45.2°F7.3°C 81% 2.4 mph NNW3.9 kmh NNW 2.4 mph3.9 kmh 29.98 in1015.2 mb 0.00 in0.0 mm 0.00 in0.0 mm 0.00 in0.0 mm
03:22 PM 44.8°F7.1°C 45.6°F7.6°C 82% 2.8 mph ESE4.5 kmh ESE 2.8 mph4.5 kmh 29.98 in1015.2 mb 0.00 in0.0 mm 0.00 in0.0 mm 0.00 in0.0 mm
03:25 PM 44.9°F7.2°C 45.3°F7.4°C 82% 4.8 mph SE7.7 kmh SE 4.9 mph7.9 kmh 29.98 in1015.2 mb 0.00 in0.0 mm 0.00 in0.0 mm 0.00 in0.0 mm
03:28 PM 44.9°F7.2°C 45.1°F7.3°C 81% Calm Calm -- 29.98 in1015.2 mb 0.00 in0.0 mm 0.00 in0.0 mm 0.00 in0.0 mm
03:31 PM 44.9°F7.2°C 45.6°F7.6°C 81% 0.4 mph ESE0.6 kmh ESE 0.4 mph0.6 kmh 29.98 in1015.2 mb 0.00 in0.0 mm 0.00 in0.0 mm 0.00 in0.0 mm
03:34 PM 44.9°F7.2°C 45.2°F7.3°C 81% 3.6 mph ESE5.8 kmh ESE 3.6 mph5.8 kmh 29.98 in1015.2 mb 0.00 in0.0 mm 0.00 in0.0 mm 0.00 in0.0 mm
03:37 PM 44.8°F7.1°C 45.3°F7.4°C 82% 2.8 mph E4.5 kmh E 2.8 mph4.5 kmh 29.98 in1015.2 mb 0.00 in0.0 mm 0.00 in0.0 mm 0.00 in0.0 mm
03:40 PM 44.7°F7.1°C 45.3°F7.4°C 81% 2.4 mph NNW3.9 kmh NNW 2.4 mph3.9 kmh 29.98 in1015.2 mb 0.00 in0.0 mm 0.00 in0.0 mm 0.00 in0.0 mm
03:43 PM 44.7°F7.1°C 45.4°F7.4°C 82% 4.4 mph SE7.1 kmh SE 4.5 mph7.2 kmh 29.98 in1015.2 mb 0.00 in0.0 mm 0.00 in0.0 mm 0.00 in0.0 mm
03:46 PM 44.6°F7.0°C 45.3°F7.4°C 82% 7.7 mph NNW12.4 kmh NNW 7.8 mph12.6 kmh 29.98 in1015.2 mb 0.00 in0.0 mm 0.00 in0.0 mm 0.00 in0.0 mm
03:49 PM 44.5°F6.9°C 45.3°F7.4°C 82% 2.8 mph ESE4.5 kmh ESE 2.8 mph4.5 kmh 29.99 in1015.6 mb 0.00 in0.0 mm 0.00 in0.0 mm 0.00 in0.0 mm
03:52 PM 44.4°F6.9°C 45.6°F7.6°C 83% 2.4 mph NNW3.9 kmh NNW 2.4 mph3.9 kmh 29.99 in1015.6 mb 0.00 in0.0 mm 0.00 in0.0 mm 0.00 in0.0 mm
03:55 PM 44.3°F6.8°C 45.5°F7.5°C 83% 1.6 mph SE2.6 kmh SE 1.6 mph2.6 kmh 29.98 in1015.2 mb 0.00 in0.0 mm 0.00 in0.0 mm 0.00 in0.0 mm
03:58 PM 44.0°F6.7°C 45.6°F7.6°C 83% 7.3 mph ESE11.7 kmh ESE 7.3 mph11.7 kmh 29.98 in1015.2 mb 0.00 in0.0 mm 0.00 in0.0 mm 0.00 in0.0 mm
04:01 PM 44.2°F6.8°C 45.2°F7.3°C 83% 7.2 mph SE11.6 kmh SE 7.2 mph11.6 kmh 29.98 in1015.2 mb 0.00 in0.0 mm 0.00 in0.0 mm 0.00 in0.0 mm
04:04 PM 44.3°F6.8°C 45.5°F7.5°C 83% 2.4 mph SE3.9 kmh SE 2.4 mph3.9 kmh 29.98 in1015.2 mb 0.00 in0.0 mm 0.00 in0.0 mm 0.00 in0.0 mm
04:07 PM 44.3°F6.8°C 45.4°F7.4°C 83% 1.2 mph NNW1.9 kmh NNW 1.2 mph1.9 kmh 29.98 in1015.2 mb 0.00 in0.0 mm 0.00 in0.0 mm 0.00 in0.0 mm
04:10 PM 44.2°F6.8°C 45.4°F7.4°C 83% 5.2 mph SE8.4 kmh SE 5.3 mph8.5 kmh 29.99 in1015.6 mb 0.00 in0.0 mm 0.00 in0.0 mm 0.00 in0.0 mm
04:13 PM 44.3°F6.8°C 45.4°F7.4°C 84% 3.6 mph ESE5.8 kmh ESE 3.7 mph6.0 kmh 29.98 in1015.2 mb 0.00 in0.0 mm 0.00 in0.0 mm 0.00 in0.0 mm
04:16 PM 44.3°F6.8°C 45.3°F7.4°C 83% 6.5 mph SSE10.5 kmh SSE 6.5 mph10.5 kmh 29.98 in1015.2 mb 0.00 in0.0 mm 0.00 in0.0 mm 0.00 in0.0 mm
04:19 PM 44.2°F6.8°C 45.2°F7.3°C 83% 4.0 mph E6.4 kmh E 4.0 mph6.4 kmh 29.98 in1015.2 mb 0.00 in0.0 mm 0.00 in0.0 mm 0.00 in0.0 mm
04:22 PM 44.2°F6.8°C 44.8°F7.1°C 82% 5.7 mph SE9.2 kmh SE 5.7 mph9.2 kmh 29.98 in1015.2 mb 0.00 in0.0 mm 0.00 in0.0 mm 0.00 in0.0 mm
04:25 PM 44.0°F6.7°C 45.3°F7.4°C 83% 1.2 mph ESE1.9 kmh ESE 1.2 mph1.9 kmh 29.98 in1015.2 mb 0.00 in0.0 mm 0.00 in0.0 mm 0.00 in0.0 mm
04:28 PM 43.9°F6.6°C 45.3°F7.4°C 83% 4.5 mph E7.2 kmh E 4.5 mph7.2 kmh 29.98 in1015.2 mb 0.00 in0.0 mm 0.00 in0.0 mm 0.00 in0.0 mm
04:31 PM 43.9°F6.6°C 45.4°F7.4°C 83% 1.6 mph ESE2.6 kmh ESE 1.6 mph2.6 kmh 29.98 in1015.2 mb 0.00 in0.0 mm 0.00 in0.0 mm 0.00 in0.0 mm
04:34 PM 43.9°F6.6°C 45.2°F7.3°C 83% 4.8 mph ESE7.7 kmh ESE 4.8 mph7.7 kmh 29.98 in1015.2 mb 0.00 in0.0 mm 0.00 in0.0 mm 0.00 in0.0 mm
04:37 PM 43.9°F6.6°C 45.2°F7.3°C 83% Calm Calm -- 29.98 in1015.2 mb 0.00 in0.0 mm 0.00 in0.0 mm 0.00 in0.0 mm
04:40 PM 44.0°F6.7°C 45.2°F7.3°C 82% 6.9 mph SE11.1 kmh SE 6.9 mph11.1 kmh 29.98 in1015.2 mb 0.00 in0.0 mm 0.00 in0.0 mm 0.00 in0.0 mm
04:43 PM 44.0°F6.7°C 45.1°F7.3°C 83% Calm Calm -- 29.98 in1015.2 mb 0.00 in0.0 mm 0.00 in0.0 mm 0.00 in0.0 mm
04:46 PM 43.9°F6.6°C 45.2°F7.3°C 83% 2.0 mph ESE3.2 kmh ESE 2.0 mph3.2 kmh 29.98 in1015.2 mb 0.00 in0.0 mm 0.00 in0.0 mm 0.00 in0.0 mm
04:49 PM 43.9°F6.6°C 45.2°F7.3°C 82% 1.2 mph E1.9 kmh E 1.2 mph1.9 kmh 29.98 in1015.2 mb 0.00 in0.0 mm 0.00 in0.0 mm 0.00 in0.0 mm
04:52 PM 43.8°F6.6°C 45.1°F7.3°C 82% 8.1 mph NNW13.0 kmh NNW 8.2 mph13.2 kmh 29.98 in1015.2 mb 0.00 in0.0 mm 0.00 in0.0 mm 0.00 in0.0 mm
04:55 PM 43.7°F6.5°C 45.3°F7.4°C 83% 0.4 mph E0.6 kmh E 0.4 mph0.6 kmh 29.98 in1015.2 mb 0.00 in0.0 mm 0.00 in0.0 mm 0.00 in0.0 mm
04:58 PM 43.8°F6.6°C 45.3°F7.4°C 82% Calm Calm -- 29.98 in1015.2 mb 0.00 in0.0 mm 0.00 in0.0 mm 0.00 in0.0 mm
05:01 PM 43.8°F6.6°C 45.3°F7.4°C 82% 5.2 mph NNW8.4 kmh NNW 5.2 mph8.4 kmh 29.98 in1015.2 mb 0.00 in0.0 mm 0.00 in0.0 mm 0.00 in0.0 mm
05:04 PM 43.6°F6.4°C 45.0°F7.2°C 81% 2.4 mph ESE3.9 kmh ESE 2.4 mph3.9 kmh 29.98 in1015.2 mb 0.00 in0.0 mm 0.00 in0.0 mm 0.00 in0.0 mm
05:07 PM 43.5°F6.4°C 45.0°F7.2°C 82% 2.0 mph SE3.2 kmh SE 2.0 mph3.2 kmh 29.98 in1015.2 mb 0.00 in0.0 mm 0.00 in0.0 mm 0.00 in0.0 mm
05:10 PM 43.6°F6.4°C 45.1°F7.3°C 82% 6.1 mph E9.8 kmh E 6.1 mph9.8 kmh 29.98 in1015.2 mb 0.00 in0.0 mm 0.00 in0.0 mm 0.00 in0.0 mm
05:13 PM 43.4°F6.3°C 45.1°F7.3°C 82% Calm Calm -- 29.98 in1015.2 mb 0.00 in0.0 mm 0.00 in0.0 mm 0.00 in0.0 mm
05:16 PM 43.3°F6.3°C 45.0°F7.2°C 82% 3.2 mph SE5.1 kmh SE 3.2 mph5.1 kmh 29.98 in1015.2 mb 0.00 in0.0 mm 0.00 in0.0 mm 0.00 in0.0 mm
05:19 PM 43.4°F6.3°C 45.0°F7.2°C 83% 3.6 mph ESE5.8 kmh ESE 3.6 mph5.8 kmh 29.98 in1015.2 mb 0.00 in0.0 mm 0.00 in0.0 mm 0.00 in0.0 mm
05:22 PM 43.6°F6.4°C 44.9°F7.2°C 83% 3.6 mph ESE5.8 kmh ESE 3.7 mph6.0 kmh 29.98 in1015.2 mb 0.00 in0.0 mm 0.00 in0.0 mm 0.00 in0.0 mm
05:25 PM 43.4°F6.3°C 45.1°F7.3°C 83% 1.6 mph SE2.6 kmh SE 1.6 mph2.6 kmh 29.98 in1015.2 mb 0.00 in0.0 mm 0.00 in0.0 mm 0.00 in0.0 mm
05:28 PM 43.4°F6.3°C 44.8°F7.1°C 82% 3.2 mph E5.1 kmh E 3.2 mph5.1 kmh 29.98 in1015.2 mb 0.00 in0.0 mm 0.00 in0.0 mm 0.00 in0.0 mm
05:31 PM 43.4°F6.3°C 45.2°F7.3°C 83% 4.4 mph SE7.1 kmh SE 4.5 mph7.2 kmh 29.98 in1015.2 mb 0.00 in0.0 mm 0.00 in0.0 mm 0.00 in0.0 mm
05:34 PM 43.5°F6.4°C 45.2°F7.3°C 83% 1.6 mph SE2.6 kmh SE 1.6 mph2.6 kmh 29.98 in1015.2 mb 0.00 in0.0 mm 0.00 in0.0 mm 0.00 in0.0 mm
05:37 PM 43.5°F6.4°C 45.6°F7.6°C 84% 1.6 mph E2.6 kmh E 1.6 mph2.6 kmh 29.98 in1015.2 mb 0.00 in0.0 mm 0.00 in0.0 mm 0.00 in0.0 mm
05:40 PM 43.6°F6.4°C 45.4°F7.4°C 84% 1.6 mph NNW2.6 kmh NNW 1.6 mph2.6 kmh 29.98 in1015.2 mb 0.00 in0.0 mm 0.00 in0.0 mm 0.00 in0.0 mm
05:43 PM 43.5°F6.4°C 45.5°F7.5°C 84% 3.2 mph NNW5.1 kmh NNW 3.3 mph5.3 kmh 29.98 in1015.2 mb 0.00 in0.0 mm 0.00 in0.0 mm 0.00 in0.0 mm
05:46 PM 43.6°F6.4°C 45.0°F7.2°C 83% 3.2 mph SE5.1 kmh SE 3.3 mph5.3 kmh 29.98 in1015.2 mb 0.00 in0.0 mm 0.00 in0.0 mm 0.00 in0.0 mm
05:49 PM 43.6°F6.4°C 45.3°F7.4°C 84% 5.3 mph NNW8.5 kmh NNW 5.3 mph8.5 kmh 29.98 in1015.2 mb 0.00 in0.0 mm 0.00 in0.0 mm 0.00 in0.0 mm
05:52 PM 43.4°F6.3°C 45.4°F7.4°C 85% 4.9 mph ESE7.9 kmh ESE 4.9 mph7.9 kmh 29.97 in1014.9 mb 0.00 in0.0 mm 0.00 in0.0 mm 0.00 in0.0 mm
05:55 PM 43.5°F6.4°C 45.2°F7.3°C 84% 3.6 mph E5.8 kmh E 3.6 mph5.8 kmh 29.98 in1015.2 mb 0.00 in0.0 mm 0.00 in0.0 mm 0.00 in0.0 mm
05:58 PM 43.5°F6.4°C 45.5°F7.5°C 84% 2.4 mph ESE3.9 kmh ESE 2.4 mph3.9 kmh 29.98 in1015.2 mb 0.00 in0.0 mm 0.00 in0.0 mm 0.00 in0.0 mm
06:01 PM 43.6°F6.4°C 45.0°F7.2°C 84% 0.8 mph E1.3 kmh E 0.8 mph1.3 kmh 29.97 in1014.9 mb 0.00 in0.0 mm 0.00 in0.0 mm 0.00 in0.0 mm
06:04 PM 43.6°F6.4°C 45.1°F7.3°C 83% 8.0 mph ESE12.9 kmh ESE 8.0 mph12.9 kmh 29.97 in1014.9 mb 0.00 in0.0 mm 0.00 in0.0 mm 0.00 in0.0 mm
06:07 PM 43.9°F6.6°C 44.9°F7.2°C 83% 4.4 mph SE7.1 kmh SE 4.4 mph7.1 kmh 29.97 in1014.9 mb 0.00 in0.0 mm 0.00 in0.0 mm 0.00 in0.0 mm
06:10 PM 43.8°F6.6°C 45.2°F7.3°C 84% 4.8 mph NNW7.7 kmh NNW 4.9 mph7.9 kmh 29.97 in1014.9 mb 0.00 in0.0 mm 0.00 in0.0 mm 0.00 in0.0 mm
06:13 PM 43.8°F6.6°C 45.1°F7.3°C 83% 7.7 mph E12.4 kmh E 7.8 mph12.6 kmh 29.97 in1014.9 mb 0.00 in0.0 mm 0.00 in0.0 mm 0.00 in0.0 mm
06:16 PM 44.2°F6.8°C 44.6°F7.0°C 82% 7.1 mph ESE11.4 kmh ESE 7.2 mph11.6 kmh 29.97 in1014.9 mb 0.00 in0.0 mm 0.00 in0.0 mm 0.00 in0.0 mm
06:19 PM 44.2°F6.8°C 44.9°F7.2°C 82% 4.4 mph E7.1 kmh E 4.4 mph7.1 kmh 29.97 in1014.9 mb 0.00 in0.0 mm 0.00 in0.0 mm 0.00 in0.0 mm
06:22 PM 44.2°F6.8°C 45.1°F7.3°C 82% 6.9 mph E11.1 kmh E 6.9 mph11.1 kmh 29.97 in1014.9 mb 0.00 in0.0 mm 0.00 in0.0 mm 0.00 in0.0 mm
06:25 PM 44.5°F6.9°C 44.6°F7.0°C 81% 4.0 mph ESE6.4 kmh ESE 4.1 mph6.6 kmh 29.97 in1014.9 mb 0.00 in0.0 mm 0.00 in0.0 mm 0.00 in0.0 mm
06:28 PM 44.5°F6.9°C 44.6°F7.0°C 81% 7.3 mph E11.7 kmh E 7.4 mph11.9 kmh 29.97 in1014.9 mb 0.00 in0.0 mm 0.00 in0.0 mm 0.00 in0.0 mm
06:31 PM 44.2°F6.8°C 45.2°F7.3°C 82% 3.7 mph ESE6.0 kmh ESE 3.7 mph6.0 kmh 29.97 in1014.9 mb 0.00 in0.0 mm 0.00 in0.0 mm 0.00 in0.0 mm
06:34 PM 44.3°F6.8°C 44.6°F7.0°C 81% 7.7 mph SE12.4 kmh SE 7.7 mph12.4 kmh 29.96 in1014.6 mb 0.00 in0.0 mm 0.00 in0.0 mm 0.00 in0.0 mm
06:37 PM 44.0°F6.7°C 44.7°F7.1°C 81% 2.0 mph NNW3.2 kmh NNW 2.0 mph3.2 kmh 29.96 in1014.6 mb 0.00 in0.0 mm 0.00 in0.0 mm 0.00 in0.0 mm
06:40 PM 44.0°F6.7°C 44.8°F7.1°C 82% 2.8 mph ESE4.5 kmh ESE 2.9 mph4.7 kmh 29.96 in1014.6 mb 0.00 in0.0 mm 0.00 in0.0 mm 0.00 in0.0 mm
06:43 PM 43.8°F6.6°C 44.5°F6.9°C 81% Calm Calm -- 29.96 in1014.6 mb 0.00 in0.0 mm 0.00 in0.0 mm 0.00 in0.0 mm
06:46 PM 43.6°F6.4°C 44.7°F7.1°C 81% 5.2 mph SE8.4 kmh SE 5.2 mph8.4 kmh 29.96 in1014.6 mb 0.00 in0.0 mm 0.00 in0.0 mm 0.00 in0.0 mm
06:49 PM 43.1°F6.2°C 44.7°F7.1°C 81% 4.8 mph ESE7.7 kmh ESE 4.8 mph7.7 kmh 29.96 in1014.6 mb 0.00 in0.0 mm 0.00 in0.0 mm 0.00 in0.0 mm
06:52 PM 43.3°F6.3°C 44.6°F7.0°C 81% 2.0 mph E3.2 kmh E 2.0 mph3.2 kmh 29.96 in1014.6 mb 0.00 in0.0 mm 0.00 in0.0 mm 0.00 in0.0 mm
06:55 PM 42.9°F6.1°C 44.7°F7.1°C 81% 3.6 mph ESE5.8 kmh ESE 3.7 mph6.0 kmh 29.96 in1014.6 mb 0.00 in0.0 mm 0.00 in0.0 mm 0.00 in0.0 mm
06:58 PM 43.4°F6.3°C 44.8°F7.1°C 82% 8.1 mph ESE13.0 kmh ESE 8.2 mph13.2 kmh 29.96 in1014.6 mb 0.00 in0.0 mm 0.00 in0.0 mm 0.00 in0.0 mm
07:01 PM 43.3°F6.3°C 44.6°F7.0°C 82% 2.0 mph E3.2 kmh E 2.0 mph3.2 kmh 29.96 in1014.6 mb 0.00 in0.0 mm 0.00 in0.0 mm 0.00 in0.0 mm
07:04 PM 43.4°F6.3°C 44.7°F7.1°C 81% 4.9 mph NE7.9 kmh NE 4.9 mph7.9 kmh 29.96 in1014.6 mb 0.00 in0.0 mm 0.00 in0.0 mm 0.00 in0.0 mm
07:07 PM 43.3°F6.3°C 44.7°F7.1°C 81% 0.4 mph E0.6 kmh E 0.4 mph0.6 kmh 29.96 in1014.6 mb 0.00 in0.0 mm 0.00 in0.0 mm 0.00 in0.0 mm
07:10 PM 43.1°F6.2°C 44.7°F7.1°C 82% 1.2 mph E1.9 kmh E 1.2 mph1.9 kmh 29.96 in1014.6 mb 0.00 in0.0 mm 0.00 in0.0 mm 0.00 in0.0 mm
07:13 PM 43.1°F6.2°C 44.5°F6.9°C 81% 3.2 mph ESE5.1 kmh ESE 3.3 mph5.3 kmh 29.96 in1014.6 mb 0.00 in0.0 mm 0.00 in0.0 mm 0.00 in0.0 mm
07:16 PM 42.9°F6.1°C 44.6°F7.0°C 81% 3.2 mph SE5.1 kmh SE 3.3 mph5.3 kmh 29.96 in1014.6 mb 0.00 in0.0 mm 0.00 in0.0 mm 0.00 in0.0 mm
07:19 PM 42.8°F6.0°C 44.4°F6.9°C 81% 1.2 mph NE1.9 kmh NE 1.2 mph1.9 kmh 29.96 in1014.6 mb 0.00 in0.0 mm 0.00 in0.0 mm 0.00 in0.0 mm
07:22 PM 42.6°F5.9°C 44.2°F6.8°C 81% Calm Calm -- 29.96 in1014.6 mb 0.00 in0.0 mm 0.00 in0.0 mm 0.00 in0.0 mm
07:25 PM 42.9°F6.1°C 44.3°F6.8°C 81% 7.1 mph NNW11.4 kmh NNW 7.2 mph11.6 kmh 29.96 in1014.6 mb 0.00 in0.0 mm 0.00 in0.0 mm 0.00 in0.0 mm
07:28 PM 42.5°F5.8°C 44.2°F6.8°C 81% Calm Calm -- 29.96 in1014.6 mb 0.00 in0.0 mm 0.00 in0.0 mm 0.00 in0.0 mm
07:31 PM 42.6°F5.9°C 44.0°F6.7°C 80% 3.6 mph E5.8 kmh E 3.7 mph6.0 kmh 29.96 in1014.6 mb 0.00 in0.0 mm 0.00 in0.0 mm 0.00 in0.0 mm
07:34 PM 42.9°F6.1°C 44.1°F6.7°C 80% 3.2 mph E5.1 kmh E 3.3 mph5.3 kmh 29.95 in1014.2 mb 0.00 in0.0 mm 0.00 in0.0 mm 0.00 in0.0 mm
07:37 PM 42.8°F6.0°C 44.2°F6.8°C 81% 3.6 mph SE5.8 kmh SE 3.6 mph5.8 kmh 29.95 in1014.2 mb 0.00 in0.0 mm 0.00 in0.0 mm 0.00 in0.0 mm
07:40 PM 42.8°F6.0°C 43.9°F6.6°C 81% 2.0 mph SE3.2 kmh SE 2.0 mph3.2 kmh 29.95 in1014.2 mb 0.00 in0.0 mm 0.00 in0.0 mm 0.00 in0.0 mm
07:43 PM 42.6°F5.9°C 44.2°F6.8°C 81% 2.0 mph NNW3.2 kmh NNW 2.0 mph3.2 kmh 29.95 in1014.2 mb 0.00 in0.0 mm 0.00 in0.0 mm 0.00 in0.0 mm
07:46 PM 42.2°F5.7°C 44.0°F6.7°C 80% 2.8 mph NE4.5 kmh NE 2.8 mph4.5 kmh 29.94 in1013.9 mb 0.00 in0.0 mm 0.00 in0.0 mm 0.00 in0.0 mm
07:49 PM 42.6°F5.9°C 44.2°F6.8°C 81% 1.2 mph ENE1.9 kmh ENE 1.2 mph1.9 kmh 29.95 in1014.2 mb 0.00 in0.0 mm 0.00 in0.0 mm 0.00 in0.0 mm
07:52 PM 43.1°F6.2°C 44.0°F6.7°C 81% 4.9 mph E7.9 kmh E 4.9 mph7.9 kmh 29.94 in1013.9 mb 0.00 in0.0 mm 0.00 in0.0 mm 0.00 in0.0 mm
07:55 PM 42.9°F6.1°C 44.2°F6.8°C 81% 2.8 mph NNW4.5 kmh NNW 2.9 mph4.7 kmh 29.94 in1013.9 mb 0.00 in0.0 mm 0.00 in0.0 mm 0.00 in0.0 mm
07:58 PM 43.5°F6.4°C 44.1°F6.7°C 81% 2.0 mph E3.2 kmh E 2.0 mph3.2 kmh 29.95 in1014.2 mb 0.00 in0.0 mm 0.00 in0.0 mm 0.00 in0.0 mm
08:01 PM 43.6°F6.4°C 43.8°F6.6°C 81% 7.3 mph NE11.7 kmh NE 7.4 mph11.9 kmh 29.94 in1013.9 mb 0.00 in0.0 mm 0.00 in0.0 mm 0.00 in0.0 mm
08:04 PM 43.8°F6.6°C 44.0°F6.7°C 81% 3.2 mph SE5.1 kmh SE 3.2 mph5.1 kmh 29.94 in1013.9 mb 0.00 in0.0 mm 0.00 in0.0 mm 0.00 in0.0 mm
08:07 PM 43.9°F6.6°C 43.9°F6.6°C 80% 2.8 mph NNW4.5 kmh NNW 2.8 mph4.5 kmh 29.94 in1013.9 mb 0.00 in0.0 mm 0.00 in0.0 mm 0.00 in0.0 mm
08:10 PM 43.9°F6.6°C 43.8°F6.6°C 80% 6.5 mph SE10.5 kmh SE 6.5 mph10.5 kmh 29.94 in1013.9 mb 0.00 in0.0 mm 0.00 in0.0 mm 0.00 in0.0 mm
08:13 PM 43.9°F6.6°C 44.2°F6.8°C 80% 6.5 mph E10.5 kmh E 6.5 mph10.5 kmh 29.94 in1013.9 mb 0.00 in0.0 mm 0.00 in0.0 mm 0.00 in0.0 mm
08:16 PM 43.6°F6.4°C 44.4°F6.9°C 80% 8.1 mph E13.0 kmh E 8.2 mph13.2 kmh 29.94 in1013.9 mb 0.00 in0.0 mm 0.00 in0.0 mm 0.00 in0.0 mm
08:19 PM 44.0°F6.7°C 44.1°F6.7°C 80% 4.4 mph E7.1 kmh E 4.4 mph7.1 kmh 29.94 in1013.9 mb 0.00 in0.0 mm 0.00 in0.0 mm 0.00 in0.0 mm
08:22 PM 44.0°F6.7°C 43.9°F6.6°C 80% 1.2 mph NNW1.9 kmh NNW 1.2 mph1.9 kmh 29.94 in1013.9 mb 0.00 in0.0 mm 0.00 in0.0 mm 0.00 in0.0 mm
08:25 PM 44.2°F6.8°C 44.3°F6.8°C 81% 5.7 mph ESE9.2 kmh ESE 5.7 mph9.2 kmh 29.93 in1013.5 mb 0.00 in0.0 mm 0.00 in0.0 mm 0.00 in0.0 mm
08:28 PM 44.2°F6.8°C 44.1°F6.7°C 80% 2.4 mph NE3.9 kmh NE 2.4 mph3.9 kmh 29.94 in1013.9 mb 0.00 in0.0 mm 0.00 in0.0 mm 0.00 in0.0 mm
08:31 PM 44.4°F6.9°C 44.2°F6.8°C 80% 8.5 mph ESE13.7 kmh ESE 8.6 mph13.8 kmh 29.93 in1013.5 mb 0.00 in0.0 mm 0.00 in0.0 mm 0.00 in0.0 mm
08:34 PM 44.5°F6.9°C 44.1°F6.7°C 80% 3.2 mph NNW5.1 kmh NNW 3.2 mph5.1 kmh 29.94 in1013.9 mb 0.00 in0.0 mm 0.00 in0.0 mm 0.00 in0.0 mm
08:37 PM 44.7°F7.1°C 44.0°F6.7°C 79% 5.3 mph E8.5 kmh E 5.3 mph8.5 kmh 29.93 in1013.5 mb 0.00 in0.0 mm 0.00 in0.0 mm 0.00 in0.0 mm
08:40 PM 44.8°F7.1°C 44.0°F6.7°C 79% 7.1 mph SSE11.4 kmh SSE 7.2 mph11.6 kmh 29.94 in1013.9 mb 0.00 in0.0 mm 0.00 in0.0 mm 0.00 in0.0 mm
08:43 PM 44.5°F6.9°C 44.2°F6.8°C 79% 4.0 mph SE6.4 kmh SE 4.0 mph6.4 kmh 29.94 in1013.9 mb 0.00 in0.0 mm 0.00 in0.0 mm 0.00 in0.0 mm
08:46 PM 44.5°F6.9°C 44.4°F6.9°C 80% 2.8 mph SE4.5 kmh SE 2.9 mph4.7 kmh 29.94 in1013.9 mb 0.00 in0.0 mm 0.00 in0.0 mm 0.00 in0.0 mm
08:52 PM 44.4°F6.9°C 44.5°F6.9°C 80% 4.0 mph NE6.4 kmh NE 4.1 mph6.6 kmh 29.94 in1013.9 mb 0.00 in0.0 mm 0.00 in0.0 mm 0.00 in0.0 mm
08:55 PM 44.6°F7.0°C 44.6°F7.0°C 79% 4.0 mph NNW6.4 kmh NNW 4.0 mph6.4 kmh 29.94 in1013.9 mb 0.00 in0.0 mm 0.00 in0.0 mm 0.00 in0.0 mm
08:58 PM 44.5°F6.9°C 44.4°F6.9°C 79% 2.8 mph ESE4.5 kmh ESE 2.9 mph4.7 kmh 29.93 in1013.5 mb 0.00 in0.0 mm 0.00 in0.0 mm 0.00 in0.0 mm
09:01 PM 44.6°F7.0°C 44.3°F6.8°C 80% 4.8 mph SE7.7 kmh SE 4.8 mph7.7 kmh 29.94 in1013.9 mb 0.00 in0.0 mm 0.00 in0.0 mm 0.00 in0.0 mm
09:04 PM 44.5°F6.9°C 44.3°F6.8°C 79% 2.8 mph SE4.5 kmh SE 2.9 mph4.7 kmh 29.94 in1013.9 mb 0.00 in0.0 mm 0.00 in0.0 mm 0.00 in0.0 mm
09:07 PM 44.5°F6.9°C 44.6°F7.0°C 80% 0.4 mph SE0.6 kmh SE 0.4 mph0.6 kmh 29.94 in1013.9 mb 0.00 in0.0 mm 0.00 in0.0 mm 0.00 in0.0 mm
09:10 PM 44.2°F6.8°C 44.7°F7.1°C 80% 4.4 mph E7.1 kmh E 4.5 mph7.2 kmh 29.94 in1013.9 mb 0.00 in0.0 mm 0.00 in0.0 mm 0.00 in0.0 mm
09:13 PM 44.5°F6.9°C 44.5°F6.9°C 80% 2.8 mph E4.5 kmh E 2.9 mph4.7 kmh 29.94 in1013.9 mb 0.00 in0.0 mm 0.00 in0.0 mm 0.00 in0.0 mm
09:16 PM 44.3°F6.8°C 44.9°F7.2°C 81% 2.0 mph ESE3.2 kmh ESE 2.0 mph3.2 kmh 29.94 in1013.9 mb 0.00 in0.0 mm 0.00 in0.0 mm 0.00 in0.0 mm
09:19 PM 44.4°F6.9°C 44.8°F7.1°C 80% 1.6 mph E2.6 kmh E 1.6 mph2.6 kmh 29.93 in1013.5 mb 0.00 in0.0 mm 0.00 in0.0 mm 0.00 in0.0 mm
09:22 PM 44.2°F6.8°C 44.7°F7.1°C 80% 2.0 mph SE3.2 kmh SE 2.0 mph3.2 kmh 29.93 in1013.5 mb 0.00 in0.0 mm 0.00 in0.0 mm 0.00 in0.0 mm
09:25 PM 44.5°F6.9°C 44.8°F7.1°C 80% 4.0 mph SE6.4 kmh SE 4.0 mph6.4 kmh 29.93 in1013.5 mb 0.00 in0.0 mm 0.00 in0.0 mm 0.00 in0.0 mm
09:28 PM 44.7°F7.1°C 44.8°F7.1°C 81% 7.7 mph E12.4 kmh E 7.8 mph12.6 kmh 29.93 in1013.5 mb 0.00 in0.0 mm 0.00 in0.0 mm 0.00 in0.0 mm
09:31 PM 44.8°F7.1°C 44.8°F7.1°C 81% 2.4 mph SE3.9 kmh SE 2.4 mph3.9 kmh 29.94 in1013.9 mb 0.00 in0.0 mm 0.00 in0.0 mm 0.00 in0.0 mm
09:34 PM 44.8°F7.1°C 44.3°F6.8°C 80% 8.1 mph ESE13.0 kmh ESE 8.2 mph13.2 kmh 29.94 in1013.9 mb 0.00 in0.0 mm 0.00 in0.0 mm 0.00 in0.0 mm
09:37 PM 44.7°F7.1°C 44.7°F7.1°C 81% 0.4 mph E0.6 kmh E 0.4 mph0.6 kmh 29.94 in1013.9 mb 0.00 in0.0 mm 0.00 in0.0 mm 0.00 in0.0 mm
09:40 PM 44.7°F7.1°C 44.5°F6.9°C 80% 4.8 mph NNW7.7 kmh NNW 4.9 mph7.9 kmh 29.94 in1013.9 mb 0.00 in0.0 mm 0.00 in0.0 mm 0.00 in0.0 mm
09:43 PM 44.8°F7.1°C 45.1°F7.3°C 81% 0.8 mph ESE1.3 kmh ESE 0.8 mph1.3 kmh 29.94 in1013.9 mb 0.00 in0.0 mm 0.00 in0.0 mm 0.00 in0.0 mm
09:46 PM 44.7°F7.1°C 45.0°F7.2°C 80% 2.8 mph E4.5 kmh E 2.9 mph4.7 kmh 29.94 in1013.9 mb 0.00 in0.0 mm 0.00 in0.0 mm 0.00 in0.0 mm
09:49 PM 44.9°F7.2°C 45.0°F7.2°C 81% 6.0 mph ESE9.7 kmh ESE 6.1 mph9.8 kmh 29.94 in1013.9 mb 0.00 in0.0 mm 0.00 in0.0 mm 0.00 in0.0 mm
09:52 PM 45.1°F7.3°C 45.1°F7.3°C 81% 3.2 mph NE5.1 kmh NE 3.3 mph5.3 kmh 29.93 in1013.5 mb 0.00 in0.0 mm 0.00 in0.0 mm 0.00 in0.0 mm
09:55 PM 45.2°F7.3°C 44.7°F7.1°C 80% 2.8 mph E4.5 kmh E 2.9 mph4.7 kmh 29.93 in1013.5 mb 0.00 in0.0 mm 0.00 in0.0 mm 0.00 in0.0 mm
09:58 PM 45.1°F7.3°C 45.2°F7.3°C 81% 6.1 mph SE9.8 kmh SE 6.1 mph9.8 kmh 29.93 in1013.5 mb 0.00 in0.0 mm 0.00 in0.0 mm 0.00 in0.0 mm
10:01 PM 45.1°F7.3°C 45.1°F7.3°C 81% 2.8 mph ESE4.5 kmh ESE 2.9 mph4.7 kmh 29.94 in1013.9 mb 0.00 in0.0 mm 0.00 in0.0 mm 0.00 in0.0 mm
10:04 PM 45.1°F7.3°C 45.0°F7.2°C 80% 2.4 mph NE3.9 kmh NE 2.4 mph3.9 kmh 29.94 in1013.9 mb 0.00 in0.0 mm 0.00 in0.0 mm 0.00 in0.0 mm
10:07 PM 45.2°F7.3°C 44.9°F7.2°C 80% 8.9 mph NNW14.3 kmh NNW 9.0 mph14.5 kmh 29.94 in1013.9 mb 0.00 in0.0 mm 0.00 in0.0 mm 0.00 in0.0 mm
10:10 PM 45.3°F7.4°C 45.2°F7.3°C 80% 3.2 mph NE5.1 kmh NE 3.3 mph5.3 kmh 29.94 in1013.9 mb 0.00 in0.0 mm 0.00 in0.0 mm 0.00 in0.0 mm
10:13 PM 45.2°F7.3°C 45.3°F7.4°C 81% 5.7 mph NNW9.2 kmh NNW 5.7 mph9.2 kmh 29.94 in1013.9 mb 0.00 in0.0 mm 0.00 in0.0 mm 0.00 in0.0 mm
10:16 PM 45.1°F7.3°C 45.1°F7.3°C 81% 4.8 mph ESE7.7 kmh ESE 4.9 mph7.9 kmh 29.94 in1013.9 mb 0.00 in0.0 mm 0.00 in0.0 mm 0.00 in0.0 mm
10:19 PM 45.2°F7.3°C 45.1°F7.3°C 80% 2.0 mph SE3.2 kmh SE 2.0 mph3.2 kmh 29.94 in1013.9 mb 0.00 in0.0 mm 0.00 in0.0 mm 0.00 in0.0 mm
10:22 PM 45.1°F7.3°C 45.4°F7.4°C 80% 4.0 mph E6.4 kmh E 4.0 mph6.4 kmh 29.93 in1013.5 mb 0.00 in0.0 mm 0.00 in0.0 mm 0.00 in0.0 mm
10:25 PM 44.8°F7.1°C 45.2°F7.3°C 80% 2.0 mph NNW3.2 kmh NNW 2.0 mph3.2 kmh 29.93 in1013.5 mb 0.00 in0.0 mm 0.00 in0.0 mm 0.00 in0.0 mm
10:28 PM 44.6°F7.0°C 45.0°F7.2°C 80% 3.6 mph SE5.8 kmh SE 3.6 mph5.8 kmh 29.93 in1013.5 mb 0.00 in0.0 mm 0.00 in0.0 mm 0.00 in0.0 mm
10:31 PM 44.2°F6.8°C 45.4°F7.4°C 80% 1.2 mph E1.9 kmh E 1.2 mph1.9 kmh 29.93 in1013.5 mb 0.00 in0.0 mm 0.00 in0.0 mm 0.00 in0.0 mm
10:37 PM 43.9°F6.6°C 45.0°F7.2°C 80% 6.0 mph SE9.7 kmh SE 6.1 mph9.8 kmh 29.93 in1013.5 mb 0.00 in0.0 mm 0.00 in0.0 mm 0.00 in0.0 mm
10:40 PM 44.4°F6.9°C 44.7°F7.1°C 80% 3.6 mph E5.8 kmh E 3.7 mph6.0 kmh 29.93 in1013.5 mb 0.00 in0.0 mm 0.00 in0.0 mm 0.00 in0.0 mm
10:43 PM 44.2°F6.8°C 44.7°F7.1°C 80% 2.4 mph E3.9 kmh E 2.4 mph3.9 kmh 29.92 in1013.2 mb 0.00 in0.0 mm 0.00 in0.0 mm 0.00 in0.0 mm
10:46 PM 43.9°F6.6°C 44.7°F7.1°C 80% 3.6 mph E5.8 kmh E 3.6 mph5.8 kmh 29.92 in1013.2 mb 0.00 in0.0 mm 0.00 in0.0 mm 0.00 in0.0 mm
10:49 PM 43.9°F6.6°C 44.7°F7.1°C 81% 2.4 mph E3.9 kmh E 2.4 mph3.9 kmh 29.92 in1013.2 mb 0.00 in0.0 mm 0.00 in0.0 mm 0.00 in0.0 mm
10:52 PM 43.9°F6.6°C 44.8°F7.1°C 81% 2.0 mph NNW3.2 kmh NNW 2.0 mph3.2 kmh 29.92 in1013.2 mb 0.00 in0.0 mm 0.00 in0.0 mm 0.00 in0.0 mm
10:55 PM 43.7°F6.5°C 44.8°F7.1°C 80% 0.4 mph ESE0.6 kmh ESE 0.4 mph0.6 kmh 29.93 in1013.5 mb 0.00 in0.0 mm 0.00 in0.0 mm 0.00 in0.0 mm
10:58 PM 43.5°F6.4°C 44.7°F7.1°C 81% 4.0 mph ESE6.4 kmh ESE 4.0 mph6.4 kmh 29.93 in1013.5 mb 0.00 in0.0 mm 0.00 in0.0 mm 0.00 in0.0 mm
11:01 PM 43.4°F6.3°C 44.7°F7.1°C 81% 4.4 mph SE7.1 kmh SE 4.5 mph7.2 kmh 29.93 in1013.5 mb 0.00 in0.0 mm 0.00 in0.0 mm 0.00 in0.0 mm
11:04 PM 43.3°F6.3°C 45.1°F7.3°C 81% 0.4 mph NNW0.6 kmh NNW 0.4 mph0.6 kmh 29.92 in1013.2 mb 0.00 in0.0 mm 0.00 in0.0 mm 0.00 in0.0 mm
11:07 PM 42.8°F6.0°C 44.5°F6.9°C 80% 0.8 mph E1.3 kmh E 0.8 mph1.3 kmh 29.92 in1013.2 mb 0.00 in0.0 mm 0.00 in0.0 mm 0.00 in0.0 mm
11:10 PM 42.7°F5.9°C 44.7°F7.1°C 81% 0.4 mph E0.6 kmh E 0.4 mph0.6 kmh 29.92 in1013.2 mb 0.00 in0.0 mm 0.00 in0.0 mm 0.00 in0.0 mm
11:13 PM 43.0°F6.1°C 44.4°F6.9°C 80% 1.2 mph E1.9 kmh E 1.2 mph1.9 kmh 29.92 in1013.2 mb 0.00 in0.0 mm 0.00 in0.0 mm 0.00 in0.0 mm
11:16 PM 43.0°F6.1°C 44.8°F7.1°C 81% 4.8 mph NE7.7 kmh NE 4.8 mph7.7 kmh 29.91 in1012.9 mb 0.00 in0.0 mm 0.00 in0.0 mm 0.00 in0.0 mm
11:19 PM 42.9°F6.1°C 44.7°F7.1°C 81% 0.4 mph ESE0.6 kmh ESE 0.4 mph0.6 kmh 29.91 in1012.9 mb 0.00 in0.0 mm 0.00 in0.0 mm 0.00 in0.0 mm
11:22 PM 42.6°F5.9°C 44.7°F7.1°C 81% 1.6 mph NNW2.6 kmh NNW 1.6 mph2.6 kmh 29.91 in1012.9 mb 0.00 in0.0 mm 0.00 in0.0 mm 0.00 in0.0 mm
11:25 PM 43.3°F6.3°C 44.4°F6.9°C 81% 2.8 mph SE4.5 kmh SE 2.9 mph4.7 kmh 29.91 in1012.9 mb 0.00 in0.0 mm 0.00 in0.0 mm 0.00 in0.0 mm
11:28 PM 43.3°F6.3°C 44.7°F7.1°C 82% 2.4 mph NNW3.9 kmh NNW 2.4 mph3.9 kmh 29.91 in1012.9 mb 0.00 in0.0 mm 0.00 in0.0 mm 0.00 in0.0 mm
11:31 PM 43.4°F6.3°C 44.6°F7.0°C 81% 5.6 mph ESE9.0 kmh ESE 5.6 mph9.0 kmh 29.91 in1012.9 mb 0.00 in0.0 mm 0.00 in0.0 mm 0.00 in0.0 mm
11:34 PM 43.1°F6.2°C 44.4°F6.9°C 81% 5.3 mph ESE8.5 kmh ESE 5.3 mph8.5 kmh 29.91 in1012.9 mb 0.00 in0.0 mm 0.00 in0.0 mm 0.00 in0.0 mm
11:37 PM 43.1°F6.2°C 44.8°F7.1°C 82% 3.2 mph ESE5.1 kmh ESE 3.2 mph5.1 kmh 29.91 in1012.9 mb 0.00 in0.0 mm 0.00 in0.0 mm 0.00 in0.0 mm
11:40 PM 43.1°F6.2°C 44.9°F7.2°C 82% 4.6 mph ESE7.4 kmh ESE 4.6 mph7.4 kmh 29.91 in1012.9 mb 0.00 in0.0 mm 0.00 in0.0 mm 0.00 in0.0 mm
11:43 PM 43.1°F6.2°C 44.7°F7.1°C 82% 0.4 mph SE0.6 kmh SE 0.4 mph0.6 kmh 29.91 in1012.9 mb 0.00 in0.0 mm 0.00 in0.0 mm 0.00 in0.0 mm
11:46 PM 43.1°F6.2°C 44.7°F7.1°C 82% Calm Calm -- 29.91 in1012.9 mb 0.00 in0.0 mm 0.00 in0.0 mm 0.00 in0.0 mm
11:49 PM 43.1°F6.2°C 44.6°F7.0°C 82% 1.2 mph ESE1.9 kmh ESE 1.2 mph1.9 kmh 29.90 in1012.5 mb 0.00 in0.0 mm 0.00 in0.0 mm 0.00 in0.0 mm
11:52 PM 43.0°F6.1°C 44.8°F7.1°C 82% 2.4 mph ESE3.9 kmh ESE 2.5 mph4.0 kmh 29.91 in1012.9 mb 0.00 in0.0 mm 0.00 in0.0 mm 0.00 in0.0 mm
11:55 PM 42.9°F6.1°C 44.9°F7.2°C 83% 2.0 mph ESE3.2 kmh ESE 2.0 mph3.2 kmh 29.90 in1012.5 mb 0.00 in0.0 mm 0.00 in0.0 mm 0.00 in0.0 mm
11:58 PM 43.3°F6.3°C 44.8°F7.1°C 83% 2.0 mph NNW3.2 kmh NNW 2.0 mph3.2 kmh 29.91 in1012.9 mb 0.00 in0.0 mm 0.00 in0.0 mm 0.00 in0.0 mm